<?xml version="1.0" encoding="UTF-8" standalone="yes"?>
<gpx creator="GPSSpeed HD for iPhone"
	 version="1.1"
	 xmlns="http://www.topografix.com/GPX/1/1"
	 xmlns:xsi="http://www.w3.org/2001/XMLSchema-instance"
	 xsi:schemaLocation="http://www.topografix.com/GPX/1/1 http://www.topografix.com/GPX/1/1/gpx.xsd">
<metadata>
	<link href="http://www.mwaysolutions.com">
		<text>Visit M-Way Solutions WebSite</text>
	</link>
	<time>2011-09-11T16:39:38.716Z</time>
	<bounds maxlat="50.782485" maxlon="6.127140" minlat="50.712327" minlon="6.058801"/>
</metadata>
<trk>
<name>LB to AC</name>
<trkseg>
	<trkpt lat="50.712648" lon="6.123872">
		<ele>283</ele>
		<time>2011-09-11T14:51:26.712Z</time>
		<geoidheight>237</geoidheight>
	</trkpt>
	<trkpt lat="50.712648" lon="6.123872">
		<ele>283</ele>
		<time>2011-09-11T14:51:27.710Z</time>
		<geoidheight>237</geoidheight>
	</trkpt>
	<trkpt lat="50.712648" lon="6.123872">
		<ele>283</ele>
		<time>2011-09-11T14:51:28.711Z</time>
		<geoidheight>237</geoidheight>
	</trkpt>
	<trkpt lat="50.712648" lon="6.123872">
		<ele>283</ele>
		<time>2011-09-11T14:51:29.711Z</time>
		<geoidheight>237</geoidheight>
	</trkpt>
	<trkpt lat="50.712648" lon="6.123872">
		<ele>283</ele>
		<time>2011-09-11T14:51:30.711Z</time>
		<geoidheight>237</geoidheight>
	</trkpt>
	<trkpt lat="50.712648" lon="6.123872">
		<ele>283</ele>
		<time>2011-09-11T14:51:31.710Z</time>
		<geoidheight>237</geoidheight>
	</trkpt>
	<trkpt lat="50.712648" lon="6.123872">
		<ele>283</ele>
		<time>2011-09-11T14:51:32.711Z</time>
		<geoidheight>237</geoidheight>
	</trkpt>
	<trkpt lat="50.712648" lon="6.123872">
		<ele>283</ele>
		<time>2011-09-11T14:51:33.711Z</time>
		<geoidheight>237</geoidheight>
	</trkpt>
	<trkpt lat="50.712648" lon="6.123872">
		<ele>283</ele>
		<time>2011-09-11T14:51:34.712Z</time>
		<geoidheight>237</geoidheight>
	</trkpt>
	<trkpt lat="50.712648" lon="6.123872">
		<ele>283</ele>
		<time>2011-09-11T14:51:35.712Z</time>
		<geoidheight>237</geoidheight>
	</trkpt>
	<trkpt lat="50.712648" lon="6.123872">
		<ele>283</ele>
		<time>2011-09-11T14:51:36.713Z</time>
		<geoidheight>237</geoidheight>
	</trkpt>
	<trkpt lat="50.712648" lon="6.123872">
		<ele>283</ele>
		<time>2011-09-11T14:51:37.713Z</time>
		<geoidheight>237</geoidheight>
	</trkpt>
	<trkpt lat="50.712648" lon="6.123872">
		<ele>283</ele>
		<time>2011-09-11T14:51:38.711Z</time>
		<geoidheight>237</geoidheight>
	</trkpt>
	<trkpt lat="50.712671" lon="6.124015">
		<ele>280</ele>
		<time>2011-09-11T14:51:39.712Z</time>
		<geoidheight>234</geoidheight>
	</trkpt>
	<trkpt lat="50.712671" lon="6.124015">
		<ele>280</ele>
		<time>2011-09-11T14:51:40.712Z</time>
		<geoidheight>234</geoidheight>
	</trkpt>
	<trkpt lat="50.712671" lon="6.124015">
		<ele>280</ele>
		<time>2011-09-11T14:51:41.710Z</time>
		<geoidheight>234</geoidheight>
	</trkpt>
	<trkpt lat="50.712671" lon="6.124015">
		<ele>280</ele>
		<time>2011-09-11T14:51:42.713Z</time>
		<geoidheight>234</geoidheight>
	</trkpt>
	<trkpt lat="50.712671" lon="6.124015">
		<ele>280</ele>
		<time>2011-09-11T14:51:43.717Z</time>
		<geoidheight>234</geoidheight>
	</trkpt>
	<trkpt lat="50.712671" lon="6.124015">
		<ele>280</ele>
		<time>2011-09-11T14:51:44.712Z</time>
		<geoidheight>234</geoidheight>
	</trkpt>
	<trkpt lat="50.712671" lon="6.124015">
		<ele>280</ele>
		<time>2011-09-11T14:51:45.712Z</time>
		<geoidheight>234</geoidheight>
	</trkpt>
	<trkpt lat="50.712671" lon="6.124015">
		<ele>280</ele>
		<time>2011-09-11T14:51:46.713Z</time>
		<geoidheight>234</geoidheight>
	</trkpt>
	<trkpt lat="50.712671" lon="6.124015">
		<ele>280</ele>
		<time>2011-09-11T14:51:47.713Z</time>
		<geoidheight>234</geoidheight>
	</trkpt>
	<trkpt lat="50.712671" lon="6.124015">
		<ele>280</ele>
		<time>2011-09-11T14:51:48.710Z</time>
		<geoidheight>234</geoidheight>
	</trkpt>
	<trkpt lat="50.712671" lon="6.124015">
		<ele>280</ele>
		<time>2011-09-11T14:51:49.711Z</time>
		<geoidheight>234</geoidheight>
	</trkpt>
	<trkpt lat="50.712671" lon="6.124015">
		<ele>291</ele>
		<time>2011-09-11T14:51:50.712Z</time>
		<geoidheight>245</geoidheight>
	</trkpt>
	<trkpt lat="50.712630" lon="6.124054">
		<ele>291</ele>
		<time>2011-09-11T14:51:51.713Z</time>
		<geoidheight>245</geoidheight>
	</trkpt>
	<trkpt lat="50.712628" lon="6.124057">
		<ele>291</ele>
		<time>2011-09-11T14:51:55.712Z</time>
		<geoidheight>245</geoidheight>
	</trkpt>
	<trkpt lat="50.712627" lon="6.124058">
		<ele>289</ele>
		<time>2011-09-11T14:52:12.715Z</time>
		<geoidheight>243</geoidheight>
	</trkpt>
	<trkpt lat="50.712631" lon="6.124082">
		<ele>289</ele>
		<time>2011-09-11T14:52:14.712Z</time>
		<geoidheight>243</geoidheight>
	</trkpt>
	<trkpt lat="50.712634" lon="6.124084">
		<ele>289</ele>
		<time>2011-09-11T14:52:15.712Z</time>
		<geoidheight>243</geoidheight>
	</trkpt>
	<trkpt lat="50.712626" lon="6.124080">
		<ele>289</ele>
		<time>2011-09-11T14:52:18.722Z</time>
		<geoidheight>243</geoidheight>
	</trkpt>
	<trkpt lat="50.712626" lon="6.124079">
		<ele>289</ele>
		<time>2011-09-11T14:52:19.725Z</time>
		<geoidheight>243</geoidheight>
	</trkpt>
	<trkpt lat="50.712627" lon="6.124085">
		<ele>289</ele>
		<time>2011-09-11T14:52:22.724Z</time>
		<geoidheight>243</geoidheight>
	</trkpt>
	<trkpt lat="50.712634" lon="6.124038">
		<ele>289</ele>
		<time>2011-09-11T14:52:33.723Z</time>
		<geoidheight>243</geoidheight>
	</trkpt>
	<trkpt lat="50.712639" lon="6.124014">
		<ele>289</ele>
		<time>2011-09-11T14:52:44.713Z</time>
		<geoidheight>243</geoidheight>
	</trkpt>
	<trkpt lat="50.712643" lon="6.123994">
		<ele>289</ele>
		<time>2011-09-11T14:52:49.724Z</time>
		<geoidheight>243</geoidheight>
	</trkpt>
	<trkpt lat="50.712643" lon="6.123994">
		<ele>290</ele>
		<time>2011-09-11T14:53:00.714Z</time>
		<geoidheight>244</geoidheight>
	</trkpt>
	<trkpt lat="50.712655" lon="6.124019">
		<ele>290</ele>
		<time>2011-09-11T14:53:01.723Z</time>
		<geoidheight>244</geoidheight>
	</trkpt>
	<trkpt lat="50.712693" lon="6.124074">
		<ele>290</ele>
		<time>2011-09-11T14:53:11.714Z</time>
		<geoidheight>244</geoidheight>
	</trkpt>
	<trkpt lat="50.712693" lon="6.124074">
		<ele>290</ele>
		<time>2011-09-11T14:53:13.713Z</time>
		<geoidheight>244</geoidheight>
	</trkpt>
	<trkpt lat="50.712702" lon="6.124110">
		<ele>290</ele>
		<time>2011-09-11T14:53:15.713Z</time>
		<geoidheight>244</geoidheight>
	</trkpt>
	<trkpt lat="50.712707" lon="6.124127">
		<ele>290</ele>
		<time>2011-09-11T14:53:17.713Z</time>
		<geoidheight>244</geoidheight>
	</trkpt>
	<trkpt lat="50.712707" lon="6.124127">
		<ele>289</ele>
		<time>2011-09-11T14:53:24.723Z</time>
		<geoidheight>243</geoidheight>
	</trkpt>
	<trkpt lat="50.712717" lon="6.124170">
		<ele>289</ele>
		<time>2011-09-11T14:53:27.715Z</time>
		<geoidheight>243</geoidheight>
	</trkpt>
	<trkpt lat="50.712717" lon="6.124170">
		<ele>289</ele>
		<time>2011-09-11T14:53:33.713Z</time>
		<geoidheight>243</geoidheight>
	</trkpt>
	<trkpt lat="50.712718" lon="6.124154">
		<ele>289</ele>
		<time>2011-09-11T14:53:36.713Z</time>
		<geoidheight>243</geoidheight>
	</trkpt>
	<trkpt lat="50.712718" lon="6.124154">
		<ele>289</ele>
		<time>2011-09-11T14:53:48.712Z</time>
		<geoidheight>243</geoidheight>
	</trkpt>
	<trkpt lat="50.712715" lon="6.124102">
		<ele>289</ele>
		<time>2011-09-11T14:53:50.716Z</time>
		<geoidheight>243</geoidheight>
	</trkpt>
	<trkpt lat="50.712715" lon="6.124102">
		<ele>289</ele>
		<time>2011-09-11T14:53:55.712Z</time>
		<geoidheight>243</geoidheight>
	</trkpt>
	<trkpt lat="50.712707" lon="6.124067">
		<ele>289</ele>
		<time>2011-09-11T14:53:58.715Z</time>
		<geoidheight>243</geoidheight>
	</trkpt>
	<trkpt lat="50.712707" lon="6.124067">
		<ele>289</ele>
		<time>2011-09-11T14:54:04.713Z</time>
		<geoidheight>243</geoidheight>
	</trkpt>
	<trkpt lat="50.712692" lon="6.124042">
		<ele>289</ele>
		<time>2011-09-11T14:54:06.715Z</time>
		<geoidheight>243</geoidheight>
	</trkpt>
	<trkpt lat="50.712406" lon="6.123766">
		<ele>288</ele>
		<time>2011-09-11T14:56:27.714Z</time>
		<geoidheight>242</geoidheight>
	</trkpt>
	<trkpt lat="50.712374" lon="6.123753">
		<ele>288</ele>
		<time>2011-09-11T14:56:28.714Z</time>
		<geoidheight>242</geoidheight>
	</trkpt>
	<trkpt lat="50.712346" lon="6.123739">
		<ele>289</ele>
		<time>2011-09-11T14:56:29.720Z</time>
		<geoidheight>243</geoidheight>
	</trkpt>
	<trkpt lat="50.712327" lon="6.123722">
		<ele>289</ele>
		<time>2011-09-11T14:56:30.715Z</time>
		<geoidheight>243</geoidheight>
	</trkpt>
	<trkpt lat="50.712355" lon="6.123668">
		<ele>289</ele>
		<time>2011-09-11T14:56:31.714Z</time>
		<geoidheight>243</geoidheight>
	</trkpt>
	<trkpt lat="50.712388" lon="6.123611">
		<ele>290</ele>
		<time>2011-09-11T14:56:32.725Z</time>
		<geoidheight>244</geoidheight>
	</trkpt>
	<trkpt lat="50.712455" lon="6.123547">
		<ele>291</ele>
		<time>2011-09-11T14:56:33.727Z</time>
		<geoidheight>245</geoidheight>
	</trkpt>
	<trkpt lat="50.712540" lon="6.123485">
		<ele>291</ele>
		<time>2011-09-11T14:56:34.732Z</time>
		<geoidheight>245</geoidheight>
	</trkpt>
	<trkpt lat="50.712624" lon="6.123412">
		<ele>291</ele>
		<time>2011-09-11T14:56:35.725Z</time>
		<geoidheight>245</geoidheight>
	</trkpt>
	<trkpt lat="50.712705" lon="6.123337">
		<ele>292</ele>
		<time>2011-09-11T14:56:36.727Z</time>
		<geoidheight>246</geoidheight>
	</trkpt>
	<trkpt lat="50.712786" lon="6.123255">
		<ele>292</ele>
		<time>2011-09-11T14:56:37.732Z</time>
		<geoidheight>246</geoidheight>
	</trkpt>
	<trkpt lat="50.712865" lon="6.123168">
		<ele>292</ele>
		<time>2011-09-11T14:56:38.732Z</time>
		<geoidheight>246</geoidheight>
	</trkpt>
	<trkpt lat="50.712942" lon="6.123084">
		<ele>292</ele>
		<time>2011-09-11T14:56:39.737Z</time>
		<geoidheight>246</geoidheight>
	</trkpt>
	<trkpt lat="50.713020" lon="6.123003">
		<ele>292</ele>
		<time>2011-09-11T14:56:40.749Z</time>
		<geoidheight>246</geoidheight>
	</trkpt>
	<trkpt lat="50.713099" lon="6.122923">
		<ele>293</ele>
		<time>2011-09-11T14:56:41.748Z</time>
		<geoidheight>247</geoidheight>
	</trkpt>
	<trkpt lat="50.713179" lon="6.122841">
		<ele>293</ele>
		<time>2011-09-11T14:56:42.732Z</time>
		<geoidheight>247</geoidheight>
	</trkpt>
	<trkpt lat="50.713260" lon="6.122761">
		<ele>293</ele>
		<time>2011-09-11T14:56:43.739Z</time>
		<geoidheight>247</geoidheight>
	</trkpt>
	<trkpt lat="50.713342" lon="6.122686">
		<ele>293</ele>
		<time>2011-09-11T14:56:44.734Z</time>
		<geoidheight>247</geoidheight>
	</trkpt>
	<trkpt lat="50.713423" lon="6.122611">
		<ele>293</ele>
		<time>2011-09-11T14:56:45.732Z</time>
		<geoidheight>247</geoidheight>
	</trkpt>
	<trkpt lat="50.713496" lon="6.122529">
		<ele>293</ele>
		<time>2011-09-11T14:56:46.745Z</time>
		<geoidheight>247</geoidheight>
	</trkpt>
	<trkpt lat="50.713578" lon="6.122455">
		<ele>293</ele>
		<time>2011-09-11T14:56:47.730Z</time>
		<geoidheight>247</geoidheight>
	</trkpt>
	<trkpt lat="50.713651" lon="6.122375">
		<ele>293</ele>
		<time>2011-09-11T14:56:48.726Z</time>
		<geoidheight>247</geoidheight>
	</trkpt>
	<trkpt lat="50.713724" lon="6.122296">
		<ele>293</ele>
		<time>2011-09-11T14:56:49.715Z</time>
		<geoidheight>247</geoidheight>
	</trkpt>
	<trkpt lat="50.713798" lon="6.122216">
		<ele>293</ele>
		<time>2011-09-11T14:56:50.715Z</time>
		<geoidheight>247</geoidheight>
	</trkpt>
	<trkpt lat="50.713889" lon="6.122133">
		<ele>293</ele>
		<time>2011-09-11T14:56:51.716Z</time>
		<geoidheight>247</geoidheight>
	</trkpt>
	<trkpt lat="50.713979" lon="6.122050">
		<ele>292</ele>
		<time>2011-09-11T14:56:52.716Z</time>
		<geoidheight>246</geoidheight>
	</trkpt>
	<trkpt lat="50.714054" lon="6.121963">
		<ele>292</ele>
		<time>2011-09-11T14:56:53.713Z</time>
		<geoidheight>246</geoidheight>
	</trkpt>
	<trkpt lat="50.714129" lon="6.121875">
		<ele>292</ele>
		<time>2011-09-11T14:56:54.713Z</time>
		<geoidheight>246</geoidheight>
	</trkpt>
	<trkpt lat="50.714230" lon="6.121843">
		<ele>292</ele>
		<time>2011-09-11T14:56:55.716Z</time>
		<geoidheight>246</geoidheight>
	</trkpt>
	<trkpt lat="50.714327" lon="6.121788">
		<ele>292</ele>
		<time>2011-09-11T14:56:56.714Z</time>
		<geoidheight>246</geoidheight>
	</trkpt>
	<trkpt lat="50.714424" lon="6.121738">
		<ele>292</ele>
		<time>2011-09-11T14:56:57.715Z</time>
		<geoidheight>246</geoidheight>
	</trkpt>
	<trkpt lat="50.714518" lon="6.121687">
		<ele>292</ele>
		<time>2011-09-11T14:56:58.714Z</time>
		<geoidheight>246</geoidheight>
	</trkpt>
	<trkpt lat="50.714618" lon="6.121681">
		<ele>292</ele>
		<time>2011-09-11T14:56:59.718Z</time>
		<geoidheight>246</geoidheight>
	</trkpt>
	<trkpt lat="50.714804" lon="6.121664">
		<ele>292</ele>
		<time>2011-09-11T14:57:01.714Z</time>
		<geoidheight>246</geoidheight>
	</trkpt>
	<trkpt lat="50.714898" lon="6.121675">
		<ele>291</ele>
		<time>2011-09-11T14:57:02.715Z</time>
		<geoidheight>245</geoidheight>
	</trkpt>
	<trkpt lat="50.714992" lon="6.121678">
		<ele>291</ele>
		<time>2011-09-11T14:57:03.717Z</time>
		<geoidheight>245</geoidheight>
	</trkpt>
	<trkpt lat="50.715035" lon="6.121684">
		<ele>291</ele>
		<time>2011-09-11T14:57:04.739Z</time>
		<geoidheight>245</geoidheight>
	</trkpt>
	<trkpt lat="50.715083" lon="6.121696">
		<ele>290</ele>
		<time>2011-09-11T14:57:05.743Z</time>
		<geoidheight>244</geoidheight>
	</trkpt>
	<trkpt lat="50.715138" lon="6.121717">
		<ele>290</ele>
		<time>2011-09-11T14:57:06.739Z</time>
		<geoidheight>244</geoidheight>
	</trkpt>
	<trkpt lat="50.715194" lon="6.121729">
		<ele>291</ele>
		<time>2011-09-11T14:57:07.738Z</time>
		<geoidheight>245</geoidheight>
	</trkpt>
	<trkpt lat="50.715253" lon="6.121721">
		<ele>291</ele>
		<time>2011-09-11T14:57:08.738Z</time>
		<geoidheight>245</geoidheight>
	</trkpt>
	<trkpt lat="50.715312" lon="6.121710">
		<ele>291</ele>
		<time>2011-09-11T14:57:09.747Z</time>
		<geoidheight>245</geoidheight>
	</trkpt>
	<trkpt lat="50.715369" lon="6.121698">
		<ele>291</ele>
		<time>2011-09-11T14:57:10.726Z</time>
		<geoidheight>245</geoidheight>
	</trkpt>
	<trkpt lat="50.715423" lon="6.121669">
		<ele>291</ele>
		<time>2011-09-11T14:57:11.741Z</time>
		<geoidheight>245</geoidheight>
	</trkpt>
	<trkpt lat="50.715478" lon="6.121640">
		<ele>291</ele>
		<time>2011-09-11T14:57:12.748Z</time>
		<geoidheight>245</geoidheight>
	</trkpt>
	<trkpt lat="50.715534" lon="6.121606">
		<ele>290</ele>
		<time>2011-09-11T14:57:13.750Z</time>
		<geoidheight>244</geoidheight>
	</trkpt>
	<trkpt lat="50.715590" lon="6.121567">
		<ele>290</ele>
		<time>2011-09-11T14:57:14.716Z</time>
		<geoidheight>244</geoidheight>
	</trkpt>
	<trkpt lat="50.715648" lon="6.121527">
		<ele>290</ele>
		<time>2011-09-11T14:57:15.718Z</time>
		<geoidheight>244</geoidheight>
	</trkpt>
	<trkpt lat="50.715707" lon="6.121484">
		<ele>290</ele>
		<time>2011-09-11T14:57:16.722Z</time>
		<geoidheight>244</geoidheight>
	</trkpt>
	<trkpt lat="50.715773" lon="6.121437">
		<ele>290</ele>
		<time>2011-09-11T14:57:17.714Z</time>
		<geoidheight>244</geoidheight>
	</trkpt>
	<trkpt lat="50.715843" lon="6.121390">
		<ele>290</ele>
		<time>2011-09-11T14:57:18.716Z</time>
		<geoidheight>244</geoidheight>
	</trkpt>
	<trkpt lat="50.715913" lon="6.121344">
		<ele>290</ele>
		<time>2011-09-11T14:57:19.715Z</time>
		<geoidheight>244</geoidheight>
	</trkpt>
	<trkpt lat="50.715973" lon="6.121302">
		<ele>290</ele>
		<time>2011-09-11T14:57:20.713Z</time>
		<geoidheight>244</geoidheight>
	</trkpt>
	<trkpt lat="50.716033" lon="6.121261">
		<ele>290</ele>
		<time>2011-09-11T14:57:21.712Z</time>
		<geoidheight>244</geoidheight>
	</trkpt>
	<trkpt lat="50.716093" lon="6.121219">
		<ele>290</ele>
		<time>2011-09-11T14:57:22.715Z</time>
		<geoidheight>244</geoidheight>
	</trkpt>
	<trkpt lat="50.716154" lon="6.121177">
		<ele>290</ele>
		<time>2011-09-11T14:57:23.721Z</time>
		<geoidheight>244</geoidheight>
	</trkpt>
	<trkpt lat="50.716214" lon="6.121136">
		<ele>290</ele>
		<time>2011-09-11T14:57:24.713Z</time>
		<geoidheight>244</geoidheight>
	</trkpt>
	<trkpt lat="50.716377" lon="6.121554">
		<ele>291</ele>
		<time>2011-09-11T14:57:25.722Z</time>
		<geoidheight>245</geoidheight>
	</trkpt>
	<trkpt lat="50.716682" lon="6.121903">
		<ele>291</ele>
		<time>2011-09-11T14:57:29.730Z</time>
		<geoidheight>245</geoidheight>
	</trkpt>
	<trkpt lat="50.716779" lon="6.122177">
		<ele>292</ele>
		<time>2011-09-11T14:57:30.714Z</time>
		<geoidheight>246</geoidheight>
	</trkpt>
	<trkpt lat="50.716990" lon="6.122639">
		<ele>292</ele>
		<time>2011-09-11T14:57:32.715Z</time>
		<geoidheight>246</geoidheight>
	</trkpt>
	<trkpt lat="50.717137" lon="6.122947">
		<ele>293</ele>
		<time>2011-09-11T14:57:33.713Z</time>
		<geoidheight>247</geoidheight>
	</trkpt>
	<trkpt lat="50.717286" lon="6.123264">
		<ele>293</ele>
		<time>2011-09-11T14:57:34.717Z</time>
		<geoidheight>247</geoidheight>
	</trkpt>
	<trkpt lat="50.717866" lon="6.124720">
		<ele>294</ele>
		<time>2011-09-11T14:57:40.721Z</time>
		<geoidheight>248</geoidheight>
	</trkpt>
	<trkpt lat="50.718062" lon="6.125058">
		<ele>295</ele>
		<time>2011-09-11T14:57:41.716Z</time>
		<geoidheight>249</geoidheight>
	</trkpt>
	<trkpt lat="50.718245" lon="6.125320">
		<ele>296</ele>
		<time>2011-09-11T14:57:42.715Z</time>
		<geoidheight>250</geoidheight>
	</trkpt>
	<trkpt lat="50.718405" lon="6.125549">
		<ele>296</ele>
		<time>2011-09-11T14:57:43.715Z</time>
		<geoidheight>250</geoidheight>
	</trkpt>
	<trkpt lat="50.718550" lon="6.125750">
		<ele>297</ele>
		<time>2011-09-11T14:57:44.716Z</time>
		<geoidheight>251</geoidheight>
	</trkpt>
	<trkpt lat="50.718661" lon="6.125917">
		<ele>298</ele>
		<time>2011-09-11T14:57:45.715Z</time>
		<geoidheight>252</geoidheight>
	</trkpt>
	<trkpt lat="50.718769" lon="6.126078">
		<ele>298</ele>
		<time>2011-09-11T14:57:46.726Z</time>
		<geoidheight>252</geoidheight>
	</trkpt>
	<trkpt lat="50.718864" lon="6.126214">
		<ele>299</ele>
		<time>2011-09-11T14:57:47.725Z</time>
		<geoidheight>253</geoidheight>
	</trkpt>
	<trkpt lat="50.718949" lon="6.126338">
		<ele>299</ele>
		<time>2011-09-11T14:57:48.720Z</time>
		<geoidheight>253</geoidheight>
	</trkpt>
	<trkpt lat="50.719029" lon="6.126452">
		<ele>299</ele>
		<time>2011-09-11T14:57:49.718Z</time>
		<geoidheight>253</geoidheight>
	</trkpt>
	<trkpt lat="50.719102" lon="6.126558">
		<ele>299</ele>
		<time>2011-09-11T14:57:50.728Z</time>
		<geoidheight>253</geoidheight>
	</trkpt>
	<trkpt lat="50.719174" lon="6.126660">
		<ele>299</ele>
		<time>2011-09-11T14:57:51.719Z</time>
		<geoidheight>253</geoidheight>
	</trkpt>
	<trkpt lat="50.719243" lon="6.126744">
		<ele>299</ele>
		<time>2011-09-11T14:57:52.728Z</time>
		<geoidheight>253</geoidheight>
	</trkpt>
	<trkpt lat="50.719310" lon="6.126833">
		<ele>299</ele>
		<time>2011-09-11T14:57:53.718Z</time>
		<geoidheight>253</geoidheight>
	</trkpt>
	<trkpt lat="50.719376" lon="6.126920">
		<ele>299</ele>
		<time>2011-09-11T14:57:54.728Z</time>
		<geoidheight>253</geoidheight>
	</trkpt>
	<trkpt lat="50.719395" lon="6.126960">
		<ele>299</ele>
		<time>2011-09-11T14:57:55.734Z</time>
		<geoidheight>253</geoidheight>
	</trkpt>
	<trkpt lat="50.719395" lon="6.126960">
		<ele>299</ele>
		<time>2011-09-11T14:57:56.732Z</time>
		<geoidheight>253</geoidheight>
	</trkpt>
	<trkpt lat="50.719395" lon="6.126960">
		<ele>299</ele>
		<time>2011-09-11T14:57:57.739Z</time>
		<geoidheight>253</geoidheight>
	</trkpt>
	<trkpt lat="50.719395" lon="6.126960">
		<ele>299</ele>
		<time>2011-09-11T14:57:58.733Z</time>
		<geoidheight>253</geoidheight>
	</trkpt>
	<trkpt lat="50.719395" lon="6.126960">
		<ele>299</ele>
		<time>2011-09-11T14:57:59.726Z</time>
		<geoidheight>253</geoidheight>
	</trkpt>
	<trkpt lat="50.719395" lon="6.126960">
		<ele>299</ele>
		<time>2011-09-11T14:58:00.717Z</time>
		<geoidheight>253</geoidheight>
	</trkpt>
	<trkpt lat="50.719395" lon="6.126960">
		<ele>299</ele>
		<time>2011-09-11T14:58:01.717Z</time>
		<geoidheight>253</geoidheight>
	</trkpt>
	<trkpt lat="50.719395" lon="6.126960">
		<ele>299</ele>
		<time>2011-09-11T14:58:02.715Z</time>
		<geoidheight>253</geoidheight>
	</trkpt>
	<trkpt lat="50.719395" lon="6.126960">
		<ele>299</ele>
		<time>2011-09-11T14:58:03.716Z</time>
		<geoidheight>253</geoidheight>
	</trkpt>
	<trkpt lat="50.719395" lon="6.126960">
		<ele>299</ele>
		<time>2011-09-11T14:58:04.717Z</time>
		<geoidheight>253</geoidheight>
	</trkpt>
	<trkpt lat="50.719395" lon="6.126960">
		<ele>299</ele>
		<time>2011-09-11T14:58:05.742Z</time>
		<geoidheight>253</geoidheight>
	</trkpt>
	<trkpt lat="50.719395" lon="6.126960">
		<ele>299</ele>
		<time>2011-09-11T14:58:06.746Z</time>
		<geoidheight>253</geoidheight>
	</trkpt>
	<trkpt lat="50.719395" lon="6.126960">
		<ele>299</ele>
		<time>2011-09-11T14:58:07.745Z</time>
		<geoidheight>253</geoidheight>
	</trkpt>
	<trkpt lat="50.719395" lon="6.126960">
		<ele>299</ele>
		<time>2011-09-11T14:58:08.751Z</time>
		<geoidheight>253</geoidheight>
	</trkpt>
	<trkpt lat="50.719395" lon="6.126960">
		<ele>299</ele>
		<time>2011-09-11T14:58:09.735Z</time>
		<geoidheight>253</geoidheight>
	</trkpt>
	<trkpt lat="50.719395" lon="6.126960">
		<ele>299</ele>
		<time>2011-09-11T14:58:10.739Z</time>
		<geoidheight>253</geoidheight>
	</trkpt>
	<trkpt lat="50.719395" lon="6.126960">
		<ele>299</ele>
		<time>2011-09-11T14:58:12.715Z</time>
		<geoidheight>253</geoidheight>
	</trkpt>
	<trkpt lat="50.719395" lon="6.126960">
		<ele>299</ele>
		<time>2011-09-11T14:58:13.723Z</time>
		<geoidheight>253</geoidheight>
	</trkpt>
	<trkpt lat="50.719395" lon="6.126960">
		<ele>299</ele>
		<time>2011-09-11T14:58:14.719Z</time>
		<geoidheight>253</geoidheight>
	</trkpt>
	<trkpt lat="50.719395" lon="6.126960">
		<ele>299</ele>
		<time>2011-09-11T14:58:15.719Z</time>
		<geoidheight>253</geoidheight>
	</trkpt>
	<trkpt lat="50.719395" lon="6.126960">
		<ele>299</ele>
		<time>2011-09-11T14:58:16.727Z</time>
		<geoidheight>253</geoidheight>
	</trkpt>
	<trkpt lat="50.719395" lon="6.126960">
		<ele>299</ele>
		<time>2011-09-11T14:58:17.730Z</time>
		<geoidheight>253</geoidheight>
	</trkpt>
	<trkpt lat="50.719395" lon="6.126960">
		<ele>299</ele>
		<time>2011-09-11T14:58:18.729Z</time>
		<geoidheight>253</geoidheight>
	</trkpt>
	<trkpt lat="50.719395" lon="6.126960">
		<ele>299</ele>
		<time>2011-09-11T14:58:19.726Z</time>
		<geoidheight>253</geoidheight>
	</trkpt>
	<trkpt lat="50.719395" lon="6.126960">
		<ele>299</ele>
		<time>2011-09-11T14:58:21.722Z</time>
		<geoidheight>253</geoidheight>
	</trkpt>
	<trkpt lat="50.719395" lon="6.126960">
		<ele>299</ele>
		<time>2011-09-11T14:58:22.725Z</time>
		<geoidheight>253</geoidheight>
	</trkpt>
	<trkpt lat="50.719395" lon="6.126960">
		<ele>299</ele>
		<time>2011-09-11T14:58:23.724Z</time>
		<geoidheight>253</geoidheight>
	</trkpt>
	<trkpt lat="50.719395" lon="6.126960">
		<ele>299</ele>
		<time>2011-09-11T14:58:24.724Z</time>
		<geoidheight>253</geoidheight>
	</trkpt>
	<trkpt lat="50.719395" lon="6.126960">
		<ele>299</ele>
		<time>2011-09-11T14:58:25.725Z</time>
		<geoidheight>253</geoidheight>
	</trkpt>
	<trkpt lat="50.719395" lon="6.126960">
		<ele>299</ele>
		<time>2011-09-11T14:58:26.726Z</time>
		<geoidheight>253</geoidheight>
	</trkpt>
	<trkpt lat="50.719395" lon="6.126960">
		<ele>299</ele>
		<time>2011-09-11T14:58:27.738Z</time>
		<geoidheight>253</geoidheight>
	</trkpt>
	<trkpt lat="50.719395" lon="6.126960">
		<ele>299</ele>
		<time>2011-09-11T14:58:28.738Z</time>
		<geoidheight>253</geoidheight>
	</trkpt>
	<trkpt lat="50.719395" lon="6.126960">
		<ele>299</ele>
		<time>2011-09-11T14:58:29.733Z</time>
		<geoidheight>253</geoidheight>
	</trkpt>
	<trkpt lat="50.719395" lon="6.126960">
		<ele>299</ele>
		<time>2011-09-11T14:58:30.737Z</time>
		<geoidheight>253</geoidheight>
	</trkpt>
	<trkpt lat="50.719395" lon="6.126960">
		<ele>299</ele>
		<time>2011-09-11T14:58:31.732Z</time>
		<geoidheight>253</geoidheight>
	</trkpt>
	<trkpt lat="50.719395" lon="6.126960">
		<ele>299</ele>
		<time>2011-09-11T14:58:32.726Z</time>
		<geoidheight>253</geoidheight>
	</trkpt>
	<trkpt lat="50.719395" lon="6.126960">
		<ele>299</ele>
		<time>2011-09-11T14:58:33.728Z</time>
		<geoidheight>253</geoidheight>
	</trkpt>
	<trkpt lat="50.719395" lon="6.126960">
		<ele>299</ele>
		<time>2011-09-11T14:58:34.716Z</time>
		<geoidheight>253</geoidheight>
	</trkpt>
	<trkpt lat="50.719395" lon="6.126960">
		<ele>299</ele>
		<time>2011-09-11T14:58:35.717Z</time>
		<geoidheight>253</geoidheight>
	</trkpt>
	<trkpt lat="50.719395" lon="6.126960">
		<ele>299</ele>
		<time>2011-09-11T14:58:36.718Z</time>
		<geoidheight>253</geoidheight>
	</trkpt>
	<trkpt lat="50.719395" lon="6.126960">
		<ele>299</ele>
		<time>2011-09-11T14:58:37.715Z</time>
		<geoidheight>253</geoidheight>
	</trkpt>
	<trkpt lat="50.719395" lon="6.126960">
		<ele>299</ele>
		<time>2011-09-11T14:58:38.715Z</time>
		<geoidheight>253</geoidheight>
	</trkpt>
	<trkpt lat="50.719395" lon="6.126960">
		<ele>299</ele>
		<time>2011-09-11T14:58:39.715Z</time>
		<geoidheight>253</geoidheight>
	</trkpt>
	<trkpt lat="50.719395" lon="6.126960">
		<ele>299</ele>
		<time>2011-09-11T14:58:40.720Z</time>
		<geoidheight>253</geoidheight>
	</trkpt>
	<trkpt lat="50.719395" lon="6.126960">
		<ele>299</ele>
		<time>2011-09-11T14:58:41.728Z</time>
		<geoidheight>253</geoidheight>
	</trkpt>
	<trkpt lat="50.719395" lon="6.126960">
		<ele>299</ele>
		<time>2011-09-11T14:58:42.727Z</time>
		<geoidheight>253</geoidheight>
	</trkpt>
	<trkpt lat="50.719395" lon="6.126960">
		<ele>299</ele>
		<time>2011-09-11T14:58:43.723Z</time>
		<geoidheight>253</geoidheight>
	</trkpt>
	<trkpt lat="50.719395" lon="6.126960">
		<ele>299</ele>
		<time>2011-09-11T14:58:44.714Z</time>
		<geoidheight>253</geoidheight>
	</trkpt>
	<trkpt lat="50.719395" lon="6.126960">
		<ele>299</ele>
		<time>2011-09-11T14:58:45.715Z</time>
		<geoidheight>253</geoidheight>
	</trkpt>
	<trkpt lat="50.719395" lon="6.126960">
		<ele>299</ele>
		<time>2011-09-11T14:58:46.717Z</time>
		<geoidheight>253</geoidheight>
	</trkpt>
	<trkpt lat="50.719395" lon="6.126960">
		<ele>299</ele>
		<time>2011-09-11T14:58:47.716Z</time>
		<geoidheight>253</geoidheight>
	</trkpt>
	<trkpt lat="50.719395" lon="6.126960">
		<ele>299</ele>
		<time>2011-09-11T14:58:48.715Z</time>
		<geoidheight>253</geoidheight>
	</trkpt>
	<trkpt lat="50.719395" lon="6.126960">
		<ele>299</ele>
		<time>2011-09-11T14:58:49.718Z</time>
		<geoidheight>253</geoidheight>
	</trkpt>
	<trkpt lat="50.719395" lon="6.126960">
		<ele>299</ele>
		<time>2011-09-11T14:58:50.715Z</time>
		<geoidheight>253</geoidheight>
	</trkpt>
	<trkpt lat="50.719395" lon="6.126960">
		<ele>299</ele>
		<time>2011-09-11T14:58:51.715Z</time>
		<geoidheight>253</geoidheight>
	</trkpt>
	<trkpt lat="50.719395" lon="6.126960">
		<ele>299</ele>
		<time>2011-09-11T14:58:52.715Z</time>
		<geoidheight>253</geoidheight>
	</trkpt>
	<trkpt lat="50.719395" lon="6.126960">
		<ele>299</ele>
		<time>2011-09-11T14:58:53.718Z</time>
		<geoidheight>253</geoidheight>
	</trkpt>
	<trkpt lat="50.719395" lon="6.126960">
		<ele>299</ele>
		<time>2011-09-11T14:58:54.715Z</time>
		<geoidheight>253</geoidheight>
	</trkpt>
	<trkpt lat="50.719395" lon="6.126960">
		<ele>299</ele>
		<time>2011-09-11T14:58:55.715Z</time>
		<geoidheight>253</geoidheight>
	</trkpt>
	<trkpt lat="50.719395" lon="6.126960">
		<ele>299</ele>
		<time>2011-09-11T14:58:56.717Z</time>
		<geoidheight>253</geoidheight>
	</trkpt>
	<trkpt lat="50.719395" lon="6.126960">
		<ele>299</ele>
		<time>2011-09-11T14:58:57.716Z</time>
		<geoidheight>253</geoidheight>
	</trkpt>
	<trkpt lat="50.719395" lon="6.126960">
		<ele>299</ele>
		<time>2011-09-11T14:58:58.715Z</time>
		<geoidheight>253</geoidheight>
	</trkpt>
	<trkpt lat="50.719395" lon="6.126960">
		<ele>299</ele>
		<time>2011-09-11T14:58:59.716Z</time>
		<geoidheight>253</geoidheight>
	</trkpt>
	<trkpt lat="50.719395" lon="6.126960">
		<ele>299</ele>
		<time>2011-09-11T14:59:00.716Z</time>
		<geoidheight>253</geoidheight>
	</trkpt>
	<trkpt lat="50.719395" lon="6.126960">
		<ele>299</ele>
		<time>2011-09-11T14:59:01.715Z</time>
		<geoidheight>253</geoidheight>
	</trkpt>
	<trkpt lat="50.719395" lon="6.126960">
		<ele>299</ele>
		<time>2011-09-11T14:59:02.715Z</time>
		<geoidheight>253</geoidheight>
	</trkpt>
	<trkpt lat="50.719395" lon="6.126960">
		<ele>299</ele>
		<time>2011-09-11T14:59:03.716Z</time>
		<geoidheight>253</geoidheight>
	</trkpt>
	<trkpt lat="50.719395" lon="6.126960">
		<ele>299</ele>
		<time>2011-09-11T14:59:04.716Z</time>
		<geoidheight>253</geoidheight>
	</trkpt>
	<trkpt lat="50.719395" lon="6.126960">
		<ele>299</ele>
		<time>2011-09-11T14:59:05.715Z</time>
		<geoidheight>253</geoidheight>
	</trkpt>
	<trkpt lat="50.719395" lon="6.126960">
		<ele>299</ele>
		<time>2011-09-11T14:59:06.717Z</time>
		<geoidheight>253</geoidheight>
	</trkpt>
	<trkpt lat="50.719438" lon="6.127096">
		<ele>298</ele>
		<time>2011-09-11T14:59:07.723Z</time>
		<geoidheight>252</geoidheight>
	</trkpt>
	<trkpt lat="50.719438" lon="6.127096">
		<ele>298</ele>
		<time>2011-09-11T14:59:10.731Z</time>
		<geoidheight>252</geoidheight>
	</trkpt>
	<trkpt lat="50.719611" lon="6.127140">
		<ele>298</ele>
		<time>2011-09-11T14:59:13.730Z</time>
		<geoidheight>252</geoidheight>
	</trkpt>
	<trkpt lat="50.721262" lon="6.125089">
		<ele>298</ele>
		<time>2011-09-11T14:59:31.715Z</time>
		<geoidheight>252</geoidheight>
	</trkpt>
	<trkpt lat="50.721351" lon="6.124977">
		<ele>298</ele>
		<time>2011-09-11T14:59:34.715Z</time>
		<geoidheight>252</geoidheight>
	</trkpt>
	<trkpt lat="50.721377" lon="6.124928">
		<ele>298</ele>
		<time>2011-09-11T14:59:35.717Z</time>
		<geoidheight>252</geoidheight>
	</trkpt>
	<trkpt lat="50.721395" lon="6.124833">
		<ele>298</ele>
		<time>2011-09-11T14:59:37.716Z</time>
		<geoidheight>252</geoidheight>
	</trkpt>
	<trkpt lat="50.721403" lon="6.124788">
		<ele>298</ele>
		<time>2011-09-11T14:59:38.718Z</time>
		<geoidheight>252</geoidheight>
	</trkpt>
	<trkpt lat="50.721410" lon="6.124745">
		<ele>298</ele>
		<time>2011-09-11T14:59:39.715Z</time>
		<geoidheight>252</geoidheight>
	</trkpt>
	<trkpt lat="50.721419" lon="6.124700">
		<ele>298</ele>
		<time>2011-09-11T14:59:40.715Z</time>
		<geoidheight>252</geoidheight>
	</trkpt>
	<trkpt lat="50.721527" lon="6.124138">
		<ele>298</ele>
		<time>2011-09-11T14:59:51.715Z</time>
		<geoidheight>252</geoidheight>
	</trkpt>
	<trkpt lat="50.722108" lon="6.121591">
		<ele>298</ele>
		<time>2011-09-11T15:00:02.716Z</time>
		<geoidheight>252</geoidheight>
	</trkpt>
	<trkpt lat="50.722142" lon="6.121443">
		<ele>298</ele>
		<time>2011-09-11T15:00:03.715Z</time>
		<geoidheight>252</geoidheight>
	</trkpt>
	<trkpt lat="50.722176" lon="6.121295">
		<ele>298</ele>
		<time>2011-09-11T15:00:04.714Z</time>
		<geoidheight>252</geoidheight>
	</trkpt>
	<trkpt lat="50.722210" lon="6.121146">
		<ele>298</ele>
		<time>2011-09-11T15:00:05.715Z</time>
		<geoidheight>252</geoidheight>
	</trkpt>
	<trkpt lat="50.722244" lon="6.120998">
		<ele>298</ele>
		<time>2011-09-11T15:00:06.716Z</time>
		<geoidheight>252</geoidheight>
	</trkpt>
	<trkpt lat="50.722278" lon="6.120850">
		<ele>298</ele>
		<time>2011-09-11T15:00:07.714Z</time>
		<geoidheight>252</geoidheight>
	</trkpt>
	<trkpt lat="50.722312" lon="6.120702">
		<ele>298</ele>
		<time>2011-09-11T15:00:08.715Z</time>
		<geoidheight>252</geoidheight>
	</trkpt>
	<trkpt lat="50.722346" lon="6.120553">
		<ele>298</ele>
		<time>2011-09-11T15:00:09.714Z</time>
		<geoidheight>252</geoidheight>
	</trkpt>
	<trkpt lat="50.724547" lon="6.119752">
		<ele>298</ele>
		<time>2011-09-11T15:00:13.716Z</time>
		<geoidheight>252</geoidheight>
	</trkpt>
	<trkpt lat="50.724699" lon="6.119543">
		<ele>299</ele>
		<time>2011-09-11T15:00:14.718Z</time>
		<geoidheight>253</geoidheight>
	</trkpt>
	<trkpt lat="50.725686" lon="6.117865">
		<ele>303</ele>
		<time>2011-09-11T15:00:23.716Z</time>
		<geoidheight>257</geoidheight>
	</trkpt>
	<trkpt lat="50.725807" lon="6.117684">
		<ele>307</ele>
		<time>2011-09-11T15:00:24.716Z</time>
		<geoidheight>261</geoidheight>
	</trkpt>
	<trkpt lat="50.725979" lon="6.117547">
		<ele>310</ele>
		<time>2011-09-11T15:00:25.717Z</time>
		<geoidheight>264</geoidheight>
	</trkpt>
	<trkpt lat="50.726092" lon="6.117366">
		<ele>310</ele>
		<time>2011-09-11T15:00:26.713Z</time>
		<geoidheight>264</geoidheight>
	</trkpt>
	<trkpt lat="50.726205" lon="6.117186">
		<ele>310</ele>
		<time>2011-09-11T15:00:27.720Z</time>
		<geoidheight>264</geoidheight>
	</trkpt>
	<trkpt lat="50.726318" lon="6.117005">
		<ele>310</ele>
		<time>2011-09-11T15:00:28.717Z</time>
		<geoidheight>264</geoidheight>
	</trkpt>
	<trkpt lat="50.726431" lon="6.116824">
		<ele>310</ele>
		<time>2011-09-11T15:00:29.714Z</time>
		<geoidheight>264</geoidheight>
	</trkpt>
	<trkpt lat="50.726544" lon="6.116644">
		<ele>310</ele>
		<time>2011-09-11T15:00:30.714Z</time>
		<geoidheight>264</geoidheight>
	</trkpt>
	<trkpt lat="50.726656" lon="6.116463">
		<ele>310</ele>
		<time>2011-09-11T15:00:31.715Z</time>
		<geoidheight>264</geoidheight>
	</trkpt>
	<trkpt lat="50.753202" lon="6.097596">
		<ele>289</ele>
		<time>2011-09-11T15:03:17.718Z</time>
		<geoidheight>243</geoidheight>
	</trkpt>
	<trkpt lat="50.753340" lon="6.097476">
		<ele>288</ele>
		<time>2011-09-11T15:03:18.718Z</time>
		<geoidheight>242</geoidheight>
	</trkpt>
	<trkpt lat="50.753479" lon="6.097362">
		<ele>287</ele>
		<time>2011-09-11T15:03:19.717Z</time>
		<geoidheight>241</geoidheight>
	</trkpt>
	<trkpt lat="50.753616" lon="6.097251">
		<ele>285</ele>
		<time>2011-09-11T15:03:20.716Z</time>
		<geoidheight>239</geoidheight>
	</trkpt>
	<trkpt lat="50.753756" lon="6.097147">
		<ele>285</ele>
		<time>2011-09-11T15:03:21.718Z</time>
		<geoidheight>239</geoidheight>
	</trkpt>
	<trkpt lat="50.753886" lon="6.097026">
		<ele>285</ele>
		<time>2011-09-11T15:03:22.715Z</time>
		<geoidheight>239</geoidheight>
	</trkpt>
	<trkpt lat="50.754031" lon="6.096919">
		<ele>284</ele>
		<time>2011-09-11T15:03:23.723Z</time>
		<geoidheight>238</geoidheight>
	</trkpt>
	<trkpt lat="50.754177" lon="6.096810">
		<ele>283</ele>
		<time>2011-09-11T15:03:24.719Z</time>
		<geoidheight>237</geoidheight>
	</trkpt>
	<trkpt lat="50.754323" lon="6.096701">
		<ele>283</ele>
		<time>2011-09-11T15:03:25.718Z</time>
		<geoidheight>237</geoidheight>
	</trkpt>
	<trkpt lat="50.754470" lon="6.096591">
		<ele>282</ele>
		<time>2011-09-11T15:03:26.718Z</time>
		<geoidheight>236</geoidheight>
	</trkpt>
	<trkpt lat="50.754615" lon="6.096479">
		<ele>282</ele>
		<time>2011-09-11T15:03:27.719Z</time>
		<geoidheight>236</geoidheight>
	</trkpt>
	<trkpt lat="50.754759" lon="6.096374">
		<ele>282</ele>
		<time>2011-09-11T15:03:28.717Z</time>
		<geoidheight>236</geoidheight>
	</trkpt>
	<trkpt lat="50.754884" lon="6.096258">
		<ele>280</ele>
		<time>2011-09-11T15:03:29.718Z</time>
		<geoidheight>234</geoidheight>
	</trkpt>
	<trkpt lat="50.755005" lon="6.096141">
		<ele>279</ele>
		<time>2011-09-11T15:03:30.720Z</time>
		<geoidheight>233</geoidheight>
	</trkpt>
	<trkpt lat="50.755118" lon="6.096017">
		<ele>277</ele>
		<time>2011-09-11T15:03:31.719Z</time>
		<geoidheight>231</geoidheight>
	</trkpt>
	<trkpt lat="50.755226" lon="6.095895">
		<ele>274</ele>
		<time>2011-09-11T15:03:32.719Z</time>
		<geoidheight>228</geoidheight>
	</trkpt>
	<trkpt lat="50.755332" lon="6.095775">
		<ele>272</ele>
		<time>2011-09-11T15:03:33.723Z</time>
		<geoidheight>226</geoidheight>
	</trkpt>
	<trkpt lat="50.755442" lon="6.095656">
		<ele>270</ele>
		<time>2011-09-11T15:03:34.720Z</time>
		<geoidheight>224</geoidheight>
	</trkpt>
	<trkpt lat="50.755550" lon="6.095539">
		<ele>268</ele>
		<time>2011-09-11T15:03:35.717Z</time>
		<geoidheight>222</geoidheight>
	</trkpt>
	<trkpt lat="50.755660" lon="6.095423">
		<ele>266</ele>
		<time>2011-09-11T15:03:36.719Z</time>
		<geoidheight>220</geoidheight>
	</trkpt>
	<trkpt lat="50.755770" lon="6.095313">
		<ele>264</ele>
		<time>2011-09-11T15:03:37.719Z</time>
		<geoidheight>218</geoidheight>
	</trkpt>
	<trkpt lat="50.755881" lon="6.095206">
		<ele>263</ele>
		<time>2011-09-11T15:03:38.717Z</time>
		<geoidheight>217</geoidheight>
	</trkpt>
	<trkpt lat="50.756010" lon="6.095088">
		<ele>263</ele>
		<time>2011-09-11T15:03:39.717Z</time>
		<geoidheight>217</geoidheight>
	</trkpt>
	<trkpt lat="50.755887" lon="6.094783">
		<ele>259</ele>
		<time>2011-09-11T15:03:44.722Z</time>
		<geoidheight>213</geoidheight>
	</trkpt>
	<trkpt lat="50.755954" lon="6.094688">
		<ele>259</ele>
		<time>2011-09-11T15:03:45.717Z</time>
		<geoidheight>213</geoidheight>
	</trkpt>
	<trkpt lat="50.756026" lon="6.094585">
		<ele>258</ele>
		<time>2011-09-11T15:03:46.722Z</time>
		<geoidheight>212</geoidheight>
	</trkpt>
	<trkpt lat="50.756088" lon="6.094455">
		<ele>258</ele>
		<time>2011-09-11T15:03:47.724Z</time>
		<geoidheight>212</geoidheight>
	</trkpt>
	<trkpt lat="50.756153" lon="6.094340">
		<ele>257</ele>
		<time>2011-09-11T15:03:48.716Z</time>
		<geoidheight>211</geoidheight>
	</trkpt>
	<trkpt lat="50.756193" lon="6.094235">
		<ele>257</ele>
		<time>2011-09-11T15:03:49.741Z</time>
		<geoidheight>211</geoidheight>
	</trkpt>
	<trkpt lat="50.756270" lon="6.094136">
		<ele>257</ele>
		<time>2011-09-11T15:03:50.742Z</time>
		<geoidheight>211</geoidheight>
	</trkpt>
	<trkpt lat="50.756340" lon="6.094034">
		<ele>257</ele>
		<time>2011-09-11T15:03:51.740Z</time>
		<geoidheight>211</geoidheight>
	</trkpt>
	<trkpt lat="50.756392" lon="6.093926">
		<ele>256</ele>
		<time>2011-09-11T15:03:52.748Z</time>
		<geoidheight>210</geoidheight>
	</trkpt>
	<trkpt lat="50.756442" lon="6.093835">
		<ele>256</ele>
		<time>2011-09-11T15:03:53.769Z</time>
		<geoidheight>210</geoidheight>
	</trkpt>
	<trkpt lat="50.756491" lon="6.093743">
		<ele>256</ele>
		<time>2011-09-11T15:03:54.717Z</time>
		<geoidheight>210</geoidheight>
	</trkpt>
	<trkpt lat="50.756540" lon="6.093652">
		<ele>256</ele>
		<time>2011-09-11T15:03:55.715Z</time>
		<geoidheight>210</geoidheight>
	</trkpt>
	<trkpt lat="50.756590" lon="6.093560">
		<ele>256</ele>
		<time>2011-09-11T15:03:56.716Z</time>
		<geoidheight>210</geoidheight>
	</trkpt>
	<trkpt lat="50.756639" lon="6.093469">
		<ele>256</ele>
		<time>2011-09-11T15:03:57.718Z</time>
		<geoidheight>210</geoidheight>
	</trkpt>
	<trkpt lat="50.756688" lon="6.093378">
		<ele>256</ele>
		<time>2011-09-11T15:03:58.728Z</time>
		<geoidheight>210</geoidheight>
	</trkpt>
	<trkpt lat="50.756738" lon="6.093286">
		<ele>256</ele>
		<time>2011-09-11T15:03:59.717Z</time>
		<geoidheight>210</geoidheight>
	</trkpt>
	<trkpt lat="50.756787" lon="6.093195">
		<ele>256</ele>
		<time>2011-09-11T15:04:00.717Z</time>
		<geoidheight>210</geoidheight>
	</trkpt>
	<trkpt lat="50.758043" lon="6.094017">
		<ele>256</ele>
		<time>2011-09-11T15:04:07.717Z</time>
		<geoidheight>210</geoidheight>
	</trkpt>
	<trkpt lat="50.758120" lon="6.094069">
		<ele>256</ele>
		<time>2011-09-11T15:04:08.718Z</time>
		<geoidheight>210</geoidheight>
	</trkpt>
	<trkpt lat="50.758211" lon="6.094112">
		<ele>256</ele>
		<time>2011-09-11T15:04:09.717Z</time>
		<geoidheight>210</geoidheight>
	</trkpt>
	<trkpt lat="50.758304" lon="6.094142">
		<ele>256</ele>
		<time>2011-09-11T15:04:10.717Z</time>
		<geoidheight>210</geoidheight>
	</trkpt>
	<trkpt lat="50.758520" lon="6.094134">
		<ele>256</ele>
		<time>2011-09-11T15:04:12.718Z</time>
		<geoidheight>210</geoidheight>
	</trkpt>
	<trkpt lat="50.758631" lon="6.094124">
		<ele>257</ele>
		<time>2011-09-11T15:04:13.719Z</time>
		<geoidheight>211</geoidheight>
	</trkpt>
	<trkpt lat="50.758743" lon="6.094096">
		<ele>257</ele>
		<time>2011-09-11T15:04:14.715Z</time>
		<geoidheight>211</geoidheight>
	</trkpt>
	<trkpt lat="50.758855" lon="6.094068">
		<ele>257</ele>
		<time>2011-09-11T15:04:15.716Z</time>
		<geoidheight>211</geoidheight>
	</trkpt>
	<trkpt lat="50.758953" lon="6.094021">
		<ele>257</ele>
		<time>2011-09-11T15:04:16.718Z</time>
		<geoidheight>211</geoidheight>
	</trkpt>
	<trkpt lat="50.759062" lon="6.093976">
		<ele>257</ele>
		<time>2011-09-11T15:04:17.745Z</time>
		<geoidheight>211</geoidheight>
	</trkpt>
	<trkpt lat="50.759170" lon="6.093932">
		<ele>257</ele>
		<time>2011-09-11T15:04:18.715Z</time>
		<geoidheight>211</geoidheight>
	</trkpt>
	<trkpt lat="50.759274" lon="6.093900">
		<ele>257</ele>
		<time>2011-09-11T15:04:19.719Z</time>
		<geoidheight>211</geoidheight>
	</trkpt>
	<trkpt lat="50.759381" lon="6.093873">
		<ele>258</ele>
		<time>2011-09-11T15:04:20.718Z</time>
		<geoidheight>212</geoidheight>
	</trkpt>
	<trkpt lat="50.759488" lon="6.093821">
		<ele>258</ele>
		<time>2011-09-11T15:04:21.733Z</time>
		<geoidheight>212</geoidheight>
	</trkpt>
	<trkpt lat="50.759620" lon="6.093757">
		<ele>257</ele>
		<time>2011-09-11T15:04:22.725Z</time>
		<geoidheight>211</geoidheight>
	</trkpt>
	<trkpt lat="50.759729" lon="6.093708">
		<ele>257</ele>
		<time>2011-09-11T15:04:23.719Z</time>
		<geoidheight>211</geoidheight>
	</trkpt>
	<trkpt lat="50.759869" lon="6.093613">
		<ele>256</ele>
		<time>2011-09-11T15:04:24.736Z</time>
		<geoidheight>210</geoidheight>
	</trkpt>
	<trkpt lat="50.759980" lon="6.093542">
		<ele>255</ele>
		<time>2011-09-11T15:04:25.733Z</time>
		<geoidheight>209</geoidheight>
	</trkpt>
	<trkpt lat="50.760078" lon="6.093425">
		<ele>254</ele>
		<time>2011-09-11T15:04:26.731Z</time>
		<geoidheight>208</geoidheight>
	</trkpt>
	<trkpt lat="50.760179" lon="6.093359">
		<ele>254</ele>
		<time>2011-09-11T15:04:27.736Z</time>
		<geoidheight>208</geoidheight>
	</trkpt>
	<trkpt lat="50.760282" lon="6.093252">
		<ele>252</ele>
		<time>2011-09-11T15:04:28.722Z</time>
		<geoidheight>206</geoidheight>
	</trkpt>
	<trkpt lat="50.760398" lon="6.093171">
		<ele>250</ele>
		<time>2011-09-11T15:04:29.720Z</time>
		<geoidheight>204</geoidheight>
	</trkpt>
	<trkpt lat="50.760505" lon="6.093096">
		<ele>249</ele>
		<time>2011-09-11T15:04:30.717Z</time>
		<geoidheight>203</geoidheight>
	</trkpt>
	<trkpt lat="50.760568" lon="6.093047">
		<ele>249</ele>
		<time>2011-09-11T15:04:31.716Z</time>
		<geoidheight>203</geoidheight>
	</trkpt>
	<trkpt lat="50.760658" lon="6.093016">
		<ele>247</ele>
		<time>2011-09-11T15:04:32.718Z</time>
		<geoidheight>201</geoidheight>
	</trkpt>
	<trkpt lat="50.760751" lon="6.092990">
		<ele>246</ele>
		<time>2011-09-11T15:04:33.718Z</time>
		<geoidheight>200</geoidheight>
	</trkpt>
	<trkpt lat="50.760840" lon="6.092977">
		<ele>246</ele>
		<time>2011-09-11T15:04:34.718Z</time>
		<geoidheight>200</geoidheight>
	</trkpt>
	<trkpt lat="50.760905" lon="6.092947">
		<ele>246</ele>
		<time>2011-09-11T15:04:35.716Z</time>
		<geoidheight>200</geoidheight>
	</trkpt>
	<trkpt lat="50.761013" lon="6.093081">
		<ele>245</ele>
		<time>2011-09-11T15:04:36.719Z</time>
		<geoidheight>199</geoidheight>
	</trkpt>
	<trkpt lat="50.761099" lon="6.093246">
		<ele>244</ele>
		<time>2011-09-11T15:04:37.718Z</time>
		<geoidheight>198</geoidheight>
	</trkpt>
	<trkpt lat="50.761211" lon="6.093708">
		<ele>244</ele>
		<time>2011-09-11T15:04:40.718Z</time>
		<geoidheight>198</geoidheight>
	</trkpt>
	<trkpt lat="50.761257" lon="6.093940">
		<ele>242</ele>
		<time>2011-09-11T15:04:41.718Z</time>
		<geoidheight>196</geoidheight>
	</trkpt>
	<trkpt lat="50.761318" lon="6.094113">
		<ele>242</ele>
		<time>2011-09-11T15:04:42.720Z</time>
		<geoidheight>196</geoidheight>
	</trkpt>
	<trkpt lat="50.761381" lon="6.094294">
		<ele>241</ele>
		<time>2011-09-11T15:04:43.719Z</time>
		<geoidheight>195</geoidheight>
	</trkpt>
	<trkpt lat="50.761445" lon="6.094480">
		<ele>241</ele>
		<time>2011-09-11T15:04:44.720Z</time>
		<geoidheight>195</geoidheight>
	</trkpt>
	<trkpt lat="50.761516" lon="6.094703">
		<ele>241</ele>
		<time>2011-09-11T15:04:45.725Z</time>
		<geoidheight>195</geoidheight>
	</trkpt>
	<trkpt lat="50.761690" lon="6.095223">
		<ele>241</ele>
		<time>2011-09-11T15:04:48.727Z</time>
		<geoidheight>195</geoidheight>
	</trkpt>
	<trkpt lat="50.761753" lon="6.095416">
		<ele>241</ele>
		<time>2011-09-11T15:04:49.724Z</time>
		<geoidheight>195</geoidheight>
	</trkpt>
	<trkpt lat="50.761806" lon="6.095555">
		<ele>241</ele>
		<time>2011-09-11T15:04:50.716Z</time>
		<geoidheight>195</geoidheight>
	</trkpt>
	<trkpt lat="50.761907" lon="6.095703">
		<ele>241</ele>
		<time>2011-09-11T15:04:51.729Z</time>
		<geoidheight>195</geoidheight>
	</trkpt>
	<trkpt lat="50.761975" lon="6.095837">
		<ele>241</ele>
		<time>2011-09-11T15:04:52.722Z</time>
		<geoidheight>195</geoidheight>
	</trkpt>
	<trkpt lat="50.762042" lon="6.095972">
		<ele>241</ele>
		<time>2011-09-11T15:04:53.717Z</time>
		<geoidheight>195</geoidheight>
	</trkpt>
	<trkpt lat="50.762111" lon="6.095974">
		<ele>241</ele>
		<time>2011-09-11T15:04:54.717Z</time>
		<geoidheight>195</geoidheight>
	</trkpt>
	<trkpt lat="50.762182" lon="6.096023">
		<ele>241</ele>
		<time>2011-09-11T15:04:55.720Z</time>
		<geoidheight>195</geoidheight>
	</trkpt>
	<trkpt lat="50.762220" lon="6.096054">
		<ele>242</ele>
		<time>2011-09-11T15:04:56.718Z</time>
		<geoidheight>196</geoidheight>
	</trkpt>
	<trkpt lat="50.762261" lon="6.096095">
		<ele>241</ele>
		<time>2011-09-11T15:04:57.721Z</time>
		<geoidheight>195</geoidheight>
	</trkpt>
	<trkpt lat="50.762299" lon="6.096139">
		<ele>241</ele>
		<time>2011-09-11T15:04:58.725Z</time>
		<geoidheight>195</geoidheight>
	</trkpt>
	<trkpt lat="50.762336" lon="6.096172">
		<ele>241</ele>
		<time>2011-09-11T15:04:59.719Z</time>
		<geoidheight>195</geoidheight>
	</trkpt>
	<trkpt lat="50.762370" lon="6.096217">
		<ele>240</ele>
		<time>2011-09-11T15:05:00.720Z</time>
		<geoidheight>194</geoidheight>
	</trkpt>
	<trkpt lat="50.762401" lon="6.096269">
		<ele>240</ele>
		<time>2011-09-11T15:05:01.718Z</time>
		<geoidheight>194</geoidheight>
	</trkpt>
	<trkpt lat="50.762432" lon="6.096330">
		<ele>240</ele>
		<time>2011-09-11T15:05:02.719Z</time>
		<geoidheight>194</geoidheight>
	</trkpt>
	<trkpt lat="50.762466" lon="6.096402">
		<ele>240</ele>
		<time>2011-09-11T15:05:03.718Z</time>
		<geoidheight>194</geoidheight>
	</trkpt>
	<trkpt lat="50.762504" lon="6.096470">
		<ele>239</ele>
		<time>2011-09-11T15:05:04.729Z</time>
		<geoidheight>193</geoidheight>
	</trkpt>
	<trkpt lat="50.762543" lon="6.096534">
		<ele>239</ele>
		<time>2011-09-11T15:05:05.719Z</time>
		<geoidheight>193</geoidheight>
	</trkpt>
	<trkpt lat="50.762584" lon="6.096602">
		<ele>239</ele>
		<time>2011-09-11T15:05:06.724Z</time>
		<geoidheight>193</geoidheight>
	</trkpt>
	<trkpt lat="50.762622" lon="6.096665">
		<ele>239</ele>
		<time>2011-09-11T15:05:07.735Z</time>
		<geoidheight>193</geoidheight>
	</trkpt>
	<trkpt lat="50.762665" lon="6.096728">
		<ele>239</ele>
		<time>2011-09-11T15:05:08.732Z</time>
		<geoidheight>193</geoidheight>
	</trkpt>
	<trkpt lat="50.762707" lon="6.096790">
		<ele>238</ele>
		<time>2011-09-11T15:05:09.735Z</time>
		<geoidheight>192</geoidheight>
	</trkpt>
	<trkpt lat="50.762753" lon="6.096850">
		<ele>239</ele>
		<time>2011-09-11T15:05:10.728Z</time>
		<geoidheight>193</geoidheight>
	</trkpt>
	<trkpt lat="50.762801" lon="6.096912">
		<ele>239</ele>
		<time>2011-09-11T15:05:11.734Z</time>
		<geoidheight>193</geoidheight>
	</trkpt>
	<trkpt lat="50.762850" lon="6.096980">
		<ele>239</ele>
		<time>2011-09-11T15:05:12.729Z</time>
		<geoidheight>193</geoidheight>
	</trkpt>
	<trkpt lat="50.762900" lon="6.097047">
		<ele>238</ele>
		<time>2011-09-11T15:05:13.732Z</time>
		<geoidheight>192</geoidheight>
	</trkpt>
	<trkpt lat="50.762951" lon="6.097118">
		<ele>238</ele>
		<time>2011-09-11T15:05:14.739Z</time>
		<geoidheight>192</geoidheight>
	</trkpt>
	<trkpt lat="50.762999" lon="6.097189">
		<ele>238</ele>
		<time>2011-09-11T15:05:15.732Z</time>
		<geoidheight>192</geoidheight>
	</trkpt>
	<trkpt lat="50.763048" lon="6.097259">
		<ele>238</ele>
		<time>2011-09-11T15:05:16.738Z</time>
		<geoidheight>192</geoidheight>
	</trkpt>
	<trkpt lat="50.763104" lon="6.097331">
		<ele>238</ele>
		<time>2011-09-11T15:05:17.733Z</time>
		<geoidheight>192</geoidheight>
	</trkpt>
	<trkpt lat="50.763178" lon="6.097413">
		<ele>237</ele>
		<time>2011-09-11T15:05:18.744Z</time>
		<geoidheight>191</geoidheight>
	</trkpt>
	<trkpt lat="50.763251" lon="6.097493">
		<ele>236</ele>
		<time>2011-09-11T15:05:19.733Z</time>
		<geoidheight>190</geoidheight>
	</trkpt>
	<trkpt lat="50.763323" lon="6.097571">
		<ele>236</ele>
		<time>2011-09-11T15:05:20.737Z</time>
		<geoidheight>190</geoidheight>
	</trkpt>
	<trkpt lat="50.763394" lon="6.097646">
		<ele>235</ele>
		<time>2011-09-11T15:05:21.743Z</time>
		<geoidheight>189</geoidheight>
	</trkpt>
	<trkpt lat="50.763465" lon="6.097723">
		<ele>235</ele>
		<time>2011-09-11T15:05:22.746Z</time>
		<geoidheight>189</geoidheight>
	</trkpt>
	<trkpt lat="50.763537" lon="6.097803">
		<ele>234</ele>
		<time>2011-09-11T15:05:23.740Z</time>
		<geoidheight>188</geoidheight>
	</trkpt>
	<trkpt lat="50.763610" lon="6.097888">
		<ele>234</ele>
		<time>2011-09-11T15:05:24.748Z</time>
		<geoidheight>188</geoidheight>
	</trkpt>
	<trkpt lat="50.763683" lon="6.097975">
		<ele>234</ele>
		<time>2011-09-11T15:05:25.732Z</time>
		<geoidheight>188</geoidheight>
	</trkpt>
	<trkpt lat="50.763756" lon="6.098067">
		<ele>234</ele>
		<time>2011-09-11T15:05:26.721Z</time>
		<geoidheight>188</geoidheight>
	</trkpt>
	<trkpt lat="50.763831" lon="6.098163">
		<ele>233</ele>
		<time>2011-09-11T15:05:27.718Z</time>
		<geoidheight>187</geoidheight>
	</trkpt>
	<trkpt lat="50.763908" lon="6.098262">
		<ele>233</ele>
		<time>2011-09-11T15:05:28.721Z</time>
		<geoidheight>187</geoidheight>
	</trkpt>
	<trkpt lat="50.763992" lon="6.098363">
		<ele>233</ele>
		<time>2011-09-11T15:05:29.719Z</time>
		<geoidheight>187</geoidheight>
	</trkpt>
	<trkpt lat="50.764075" lon="6.098464">
		<ele>233</ele>
		<time>2011-09-11T15:05:30.717Z</time>
		<geoidheight>187</geoidheight>
	</trkpt>
	<trkpt lat="50.764160" lon="6.098560">
		<ele>233</ele>
		<time>2011-09-11T15:05:31.720Z</time>
		<geoidheight>187</geoidheight>
	</trkpt>
	<trkpt lat="50.764245" lon="6.098653">
		<ele>233</ele>
		<time>2011-09-11T15:05:32.719Z</time>
		<geoidheight>187</geoidheight>
	</trkpt>
	<trkpt lat="50.764328" lon="6.098741">
		<ele>233</ele>
		<time>2011-09-11T15:05:33.719Z</time>
		<geoidheight>187</geoidheight>
	</trkpt>
	<trkpt lat="50.764409" lon="6.098828">
		<ele>233</ele>
		<time>2011-09-11T15:05:34.718Z</time>
		<geoidheight>187</geoidheight>
	</trkpt>
	<trkpt lat="50.764489" lon="6.098912">
		<ele>233</ele>
		<time>2011-09-11T15:05:35.720Z</time>
		<geoidheight>187</geoidheight>
	</trkpt>
	<trkpt lat="50.764568" lon="6.098995">
		<ele>233</ele>
		<time>2011-09-11T15:05:36.718Z</time>
		<geoidheight>187</geoidheight>
	</trkpt>
	<trkpt lat="50.764650" lon="6.099074">
		<ele>233</ele>
		<time>2011-09-11T15:05:37.718Z</time>
		<geoidheight>187</geoidheight>
	</trkpt>
	<trkpt lat="50.764733" lon="6.099149">
		<ele>233</ele>
		<time>2011-09-11T15:05:38.721Z</time>
		<geoidheight>187</geoidheight>
	</trkpt>
	<trkpt lat="50.764815" lon="6.099223">
		<ele>233</ele>
		<time>2011-09-11T15:05:39.718Z</time>
		<geoidheight>187</geoidheight>
	</trkpt>
	<trkpt lat="50.764894" lon="6.099292">
		<ele>233</ele>
		<time>2011-09-11T15:05:40.717Z</time>
		<geoidheight>187</geoidheight>
	</trkpt>
	<trkpt lat="50.764971" lon="6.099338">
		<ele>234</ele>
		<time>2011-09-11T15:05:41.719Z</time>
		<geoidheight>188</geoidheight>
	</trkpt>
	<trkpt lat="50.765059" lon="6.099321">
		<ele>233</ele>
		<time>2011-09-11T15:05:42.719Z</time>
		<geoidheight>187</geoidheight>
	</trkpt>
	<trkpt lat="50.765147" lon="6.099304">
		<ele>233</ele>
		<time>2011-09-11T15:05:43.718Z</time>
		<geoidheight>187</geoidheight>
	</trkpt>
	<trkpt lat="50.765232" lon="6.099295">
		<ele>233</ele>
		<time>2011-09-11T15:05:44.725Z</time>
		<geoidheight>187</geoidheight>
	</trkpt>
	<trkpt lat="50.765318" lon="6.099220">
		<ele>233</ele>
		<time>2011-09-11T15:05:45.732Z</time>
		<geoidheight>187</geoidheight>
	</trkpt>
	<trkpt lat="50.765400" lon="6.099137">
		<ele>233</ele>
		<time>2011-09-11T15:05:46.750Z</time>
		<geoidheight>187</geoidheight>
	</trkpt>
	<trkpt lat="50.765480" lon="6.099058">
		<ele>233</ele>
		<time>2011-09-11T15:05:47.747Z</time>
		<geoidheight>187</geoidheight>
	</trkpt>
	<trkpt lat="50.765556" lon="6.098983">
		<ele>233</ele>
		<time>2011-09-11T15:05:48.749Z</time>
		<geoidheight>187</geoidheight>
	</trkpt>
	<trkpt lat="50.765630" lon="6.098910">
		<ele>233</ele>
		<time>2011-09-11T15:05:49.735Z</time>
		<geoidheight>187</geoidheight>
	</trkpt>
	<trkpt lat="50.765707" lon="6.098828">
		<ele>234</ele>
		<time>2011-09-11T15:05:50.728Z</time>
		<geoidheight>188</geoidheight>
	</trkpt>
	<trkpt lat="50.765766" lon="6.098704">
		<ele>235</ele>
		<time>2011-09-11T15:05:51.743Z</time>
		<geoidheight>189</geoidheight>
	</trkpt>
	<trkpt lat="50.765820" lon="6.098577">
		<ele>236</ele>
		<time>2011-09-11T15:05:52.736Z</time>
		<geoidheight>190</geoidheight>
	</trkpt>
	<trkpt lat="50.765875" lon="6.098448">
		<ele>236</ele>
		<time>2011-09-11T15:05:53.737Z</time>
		<geoidheight>190</geoidheight>
	</trkpt>
	<trkpt lat="50.765930" lon="6.098312">
		<ele>237</ele>
		<time>2011-09-11T15:05:54.733Z</time>
		<geoidheight>191</geoidheight>
	</trkpt>
	<trkpt lat="50.765985" lon="6.098175">
		<ele>237</ele>
		<time>2011-09-11T15:05:55.734Z</time>
		<geoidheight>191</geoidheight>
	</trkpt>
	<trkpt lat="50.766049" lon="6.098033">
		<ele>238</ele>
		<time>2011-09-11T15:05:56.720Z</time>
		<geoidheight>192</geoidheight>
	</trkpt>
	<trkpt lat="50.766116" lon="6.097887">
		<ele>238</ele>
		<time>2011-09-11T15:05:57.722Z</time>
		<geoidheight>192</geoidheight>
	</trkpt>
	<trkpt lat="50.766157" lon="6.097709">
		<ele>238</ele>
		<time>2011-09-11T15:05:58.722Z</time>
		<geoidheight>192</geoidheight>
	</trkpt>
	<trkpt lat="50.766197" lon="6.097530">
		<ele>239</ele>
		<time>2011-09-11T15:05:59.722Z</time>
		<geoidheight>193</geoidheight>
	</trkpt>
	<trkpt lat="50.766236" lon="6.097351">
		<ele>239</ele>
		<time>2011-09-11T15:06:00.721Z</time>
		<geoidheight>193</geoidheight>
	</trkpt>
	<trkpt lat="50.766274" lon="6.097174">
		<ele>239</ele>
		<time>2011-09-11T15:06:01.725Z</time>
		<geoidheight>193</geoidheight>
	</trkpt>
	<trkpt lat="50.766313" lon="6.097002">
		<ele>239</ele>
		<time>2011-09-11T15:06:02.740Z</time>
		<geoidheight>193</geoidheight>
	</trkpt>
	<trkpt lat="50.766353" lon="6.096833">
		<ele>240</ele>
		<time>2011-09-11T15:06:03.718Z</time>
		<geoidheight>194</geoidheight>
	</trkpt>
	<trkpt lat="50.766390" lon="6.096664">
		<ele>240</ele>
		<time>2011-09-11T15:06:04.724Z</time>
		<geoidheight>194</geoidheight>
	</trkpt>
	<trkpt lat="50.766427" lon="6.096498">
		<ele>240</ele>
		<time>2011-09-11T15:06:05.724Z</time>
		<geoidheight>194</geoidheight>
	</trkpt>
	<trkpt lat="50.766464" lon="6.096335">
		<ele>240</ele>
		<time>2011-09-11T15:06:06.722Z</time>
		<geoidheight>194</geoidheight>
	</trkpt>
	<trkpt lat="50.766502" lon="6.096172">
		<ele>238</ele>
		<time>2011-09-11T15:06:07.726Z</time>
		<geoidheight>192</geoidheight>
	</trkpt>
	<trkpt lat="50.766537" lon="6.096006">
		<ele>237</ele>
		<time>2011-09-11T15:06:08.717Z</time>
		<geoidheight>191</geoidheight>
	</trkpt>
	<trkpt lat="50.766570" lon="6.095839">
		<ele>237</ele>
		<time>2011-09-11T15:06:09.718Z</time>
		<geoidheight>191</geoidheight>
	</trkpt>
	<trkpt lat="50.766606" lon="6.095677">
		<ele>236</ele>
		<time>2011-09-11T15:06:10.719Z</time>
		<geoidheight>190</geoidheight>
	</trkpt>
	<trkpt lat="50.766642" lon="6.095517">
		<ele>236</ele>
		<time>2011-09-11T15:06:11.719Z</time>
		<geoidheight>190</geoidheight>
	</trkpt>
	<trkpt lat="50.766683" lon="6.095387">
		<ele>235</ele>
		<time>2011-09-11T15:06:12.719Z</time>
		<geoidheight>189</geoidheight>
	</trkpt>
	<trkpt lat="50.766724" lon="6.095268">
		<ele>235</ele>
		<time>2011-09-11T15:06:13.718Z</time>
		<geoidheight>189</geoidheight>
	</trkpt>
	<trkpt lat="50.766763" lon="6.095166">
		<ele>234</ele>
		<time>2011-09-11T15:06:14.723Z</time>
		<geoidheight>188</geoidheight>
	</trkpt>
	<trkpt lat="50.766814" lon="6.095099">
		<ele>235</ele>
		<time>2011-09-11T15:06:15.718Z</time>
		<geoidheight>189</geoidheight>
	</trkpt>
	<trkpt lat="50.766864" lon="6.095032">
		<ele>235</ele>
		<time>2011-09-11T15:06:16.722Z</time>
		<geoidheight>189</geoidheight>
	</trkpt>
	<trkpt lat="50.766922" lon="6.094992">
		<ele>235</ele>
		<time>2011-09-11T15:06:17.729Z</time>
		<geoidheight>189</geoidheight>
	</trkpt>
	<trkpt lat="50.766988" lon="6.094982">
		<ele>235</ele>
		<time>2011-09-11T15:06:18.719Z</time>
		<geoidheight>189</geoidheight>
	</trkpt>
	<trkpt lat="50.767057" lon="6.094988">
		<ele>235</ele>
		<time>2011-09-11T15:06:19.718Z</time>
		<geoidheight>189</geoidheight>
	</trkpt>
	<trkpt lat="50.767116" lon="6.094993">
		<ele>235</ele>
		<time>2011-09-11T15:06:20.725Z</time>
		<geoidheight>189</geoidheight>
	</trkpt>
	<trkpt lat="50.767174" lon="6.094997">
		<ele>235</ele>
		<time>2011-09-11T15:06:21.730Z</time>
		<geoidheight>189</geoidheight>
	</trkpt>
	<trkpt lat="50.767232" lon="6.095000">
		<ele>235</ele>
		<time>2011-09-11T15:06:22.717Z</time>
		<geoidheight>189</geoidheight>
	</trkpt>
	<trkpt lat="50.767293" lon="6.095011">
		<ele>234</ele>
		<time>2011-09-11T15:06:23.720Z</time>
		<geoidheight>188</geoidheight>
	</trkpt>
	<trkpt lat="50.767348" lon="6.095023">
		<ele>234</ele>
		<time>2011-09-11T15:06:24.720Z</time>
		<geoidheight>188</geoidheight>
	</trkpt>
	<trkpt lat="50.767402" lon="6.095034">
		<ele>233</ele>
		<time>2011-09-11T15:06:25.718Z</time>
		<geoidheight>187</geoidheight>
	</trkpt>
	<trkpt lat="50.767461" lon="6.095033">
		<ele>233</ele>
		<time>2011-09-11T15:06:26.717Z</time>
		<geoidheight>187</geoidheight>
	</trkpt>
	<trkpt lat="50.767512" lon="6.095059">
		<ele>233</ele>
		<time>2011-09-11T15:06:27.719Z</time>
		<geoidheight>187</geoidheight>
	</trkpt>
	<trkpt lat="50.767563" lon="6.095073">
		<ele>233</ele>
		<time>2011-09-11T15:06:28.718Z</time>
		<geoidheight>187</geoidheight>
	</trkpt>
	<trkpt lat="50.767581" lon="6.095082">
		<ele>233</ele>
		<time>2011-09-11T15:06:29.717Z</time>
		<geoidheight>187</geoidheight>
	</trkpt>
	<trkpt lat="50.767600" lon="6.095090">
		<ele>232</ele>
		<time>2011-09-11T15:06:30.721Z</time>
		<geoidheight>186</geoidheight>
	</trkpt>
	<trkpt lat="50.767619" lon="6.095099">
		<ele>232</ele>
		<time>2011-09-11T15:06:31.717Z</time>
		<geoidheight>186</geoidheight>
	</trkpt>
	<trkpt lat="50.767639" lon="6.095107">
		<ele>232</ele>
		<time>2011-09-11T15:06:32.718Z</time>
		<geoidheight>186</geoidheight>
	</trkpt>
	<trkpt lat="50.767660" lon="6.095115">
		<ele>232</ele>
		<time>2011-09-11T15:06:33.719Z</time>
		<geoidheight>186</geoidheight>
	</trkpt>
	<trkpt lat="50.767682" lon="6.095123">
		<ele>232</ele>
		<time>2011-09-11T15:06:34.719Z</time>
		<geoidheight>186</geoidheight>
	</trkpt>
	<trkpt lat="50.767706" lon="6.095131">
		<ele>232</ele>
		<time>2011-09-11T15:06:35.718Z</time>
		<geoidheight>186</geoidheight>
	</trkpt>
	<trkpt lat="50.767730" lon="6.095138">
		<ele>232</ele>
		<time>2011-09-11T15:06:36.717Z</time>
		<geoidheight>186</geoidheight>
	</trkpt>
	<trkpt lat="50.767755" lon="6.095144">
		<ele>232</ele>
		<time>2011-09-11T15:06:37.720Z</time>
		<geoidheight>186</geoidheight>
	</trkpt>
	<trkpt lat="50.767780" lon="6.095150">
		<ele>232</ele>
		<time>2011-09-11T15:06:38.718Z</time>
		<geoidheight>186</geoidheight>
	</trkpt>
	<trkpt lat="50.767806" lon="6.095156">
		<ele>232</ele>
		<time>2011-09-11T15:06:39.717Z</time>
		<geoidheight>186</geoidheight>
	</trkpt>
	<trkpt lat="50.767833" lon="6.095162">
		<ele>232</ele>
		<time>2011-09-11T15:06:40.719Z</time>
		<geoidheight>186</geoidheight>
	</trkpt>
	<trkpt lat="50.767860" lon="6.095168">
		<ele>232</ele>
		<time>2011-09-11T15:06:41.717Z</time>
		<geoidheight>186</geoidheight>
	</trkpt>
	<trkpt lat="50.767887" lon="6.095173">
		<ele>232</ele>
		<time>2011-09-11T15:06:42.727Z</time>
		<geoidheight>186</geoidheight>
	</trkpt>
	<trkpt lat="50.767915" lon="6.095178">
		<ele>232</ele>
		<time>2011-09-11T15:06:43.717Z</time>
		<geoidheight>186</geoidheight>
	</trkpt>
	<trkpt lat="50.767942" lon="6.095182">
		<ele>232</ele>
		<time>2011-09-11T15:06:44.719Z</time>
		<geoidheight>186</geoidheight>
	</trkpt>
	<trkpt lat="50.767970" lon="6.095186">
		<ele>232</ele>
		<time>2011-09-11T15:06:45.717Z</time>
		<geoidheight>186</geoidheight>
	</trkpt>
	<trkpt lat="50.767998" lon="6.095189">
		<ele>232</ele>
		<time>2011-09-11T15:06:46.719Z</time>
		<geoidheight>186</geoidheight>
	</trkpt>
	<trkpt lat="50.768026" lon="6.095195">
		<ele>232</ele>
		<time>2011-09-11T15:06:47.720Z</time>
		<geoidheight>186</geoidheight>
	</trkpt>
	<trkpt lat="50.768054" lon="6.095201">
		<ele>232</ele>
		<time>2011-09-11T15:06:48.717Z</time>
		<geoidheight>186</geoidheight>
	</trkpt>
	<trkpt lat="50.768083" lon="6.095205">
		<ele>232</ele>
		<time>2011-09-11T15:06:49.720Z</time>
		<geoidheight>186</geoidheight>
	</trkpt>
	<trkpt lat="50.768113" lon="6.095209">
		<ele>232</ele>
		<time>2011-09-11T15:06:50.720Z</time>
		<geoidheight>186</geoidheight>
	</trkpt>
	<trkpt lat="50.768142" lon="6.095213">
		<ele>232</ele>
		<time>2011-09-11T15:06:51.719Z</time>
		<geoidheight>186</geoidheight>
	</trkpt>
	<trkpt lat="50.768171" lon="6.095216">
		<ele>232</ele>
		<time>2011-09-11T15:06:52.718Z</time>
		<geoidheight>186</geoidheight>
	</trkpt>
	<trkpt lat="50.768204" lon="6.095219">
		<ele>232</ele>
		<time>2011-09-11T15:06:53.720Z</time>
		<geoidheight>186</geoidheight>
	</trkpt>
	<trkpt lat="50.768237" lon="6.095222">
		<ele>232</ele>
		<time>2011-09-11T15:06:54.720Z</time>
		<geoidheight>186</geoidheight>
	</trkpt>
	<trkpt lat="50.768271" lon="6.095225">
		<ele>232</ele>
		<time>2011-09-11T15:06:55.718Z</time>
		<geoidheight>186</geoidheight>
	</trkpt>
	<trkpt lat="50.768306" lon="6.095229">
		<ele>232</ele>
		<time>2011-09-11T15:06:56.719Z</time>
		<geoidheight>186</geoidheight>
	</trkpt>
	<trkpt lat="50.768342" lon="6.095230">
		<ele>232</ele>
		<time>2011-09-11T15:06:57.719Z</time>
		<geoidheight>186</geoidheight>
	</trkpt>
	<trkpt lat="50.768380" lon="6.095232">
		<ele>232</ele>
		<time>2011-09-11T15:06:58.718Z</time>
		<geoidheight>186</geoidheight>
	</trkpt>
	<trkpt lat="50.768419" lon="6.095234">
		<ele>232</ele>
		<time>2011-09-11T15:06:59.718Z</time>
		<geoidheight>186</geoidheight>
	</trkpt>
	<trkpt lat="50.768459" lon="6.095235">
		<ele>232</ele>
		<time>2011-09-11T15:07:00.720Z</time>
		<geoidheight>186</geoidheight>
	</trkpt>
	<trkpt lat="50.768499" lon="6.095234">
		<ele>232</ele>
		<time>2011-09-11T15:07:01.718Z</time>
		<geoidheight>186</geoidheight>
	</trkpt>
	<trkpt lat="50.768540" lon="6.095231">
		<ele>232</ele>
		<time>2011-09-11T15:07:02.719Z</time>
		<geoidheight>186</geoidheight>
	</trkpt>
	<trkpt lat="50.768582" lon="6.095229">
		<ele>231</ele>
		<time>2011-09-11T15:07:03.724Z</time>
		<geoidheight>185</geoidheight>
	</trkpt>
	<trkpt lat="50.768626" lon="6.095231">
		<ele>231</ele>
		<time>2011-09-11T15:07:04.721Z</time>
		<geoidheight>185</geoidheight>
	</trkpt>
	<trkpt lat="50.768674" lon="6.095240">
		<ele>231</ele>
		<time>2011-09-11T15:07:05.719Z</time>
		<geoidheight>185</geoidheight>
	</trkpt>
	<trkpt lat="50.768734" lon="6.095256">
		<ele>231</ele>
		<time>2011-09-11T15:07:06.722Z</time>
		<geoidheight>185</geoidheight>
	</trkpt>
	<trkpt lat="50.768800" lon="6.095268">
		<ele>231</ele>
		<time>2011-09-11T15:07:07.720Z</time>
		<geoidheight>185</geoidheight>
	</trkpt>
	<trkpt lat="50.768875" lon="6.095279">
		<ele>232</ele>
		<time>2011-09-11T15:07:08.734Z</time>
		<geoidheight>186</geoidheight>
	</trkpt>
	<trkpt lat="50.768961" lon="6.095287">
		<ele>232</ele>
		<time>2011-09-11T15:07:09.720Z</time>
		<geoidheight>186</geoidheight>
	</trkpt>
	<trkpt lat="50.769050" lon="6.095297">
		<ele>232</ele>
		<time>2011-09-11T15:07:10.733Z</time>
		<geoidheight>186</geoidheight>
	</trkpt>
	<trkpt lat="50.769141" lon="6.095309">
		<ele>232</ele>
		<time>2011-09-11T15:07:11.734Z</time>
		<geoidheight>186</geoidheight>
	</trkpt>
	<trkpt lat="50.769235" lon="6.095327">
		<ele>232</ele>
		<time>2011-09-11T15:07:12.721Z</time>
		<geoidheight>186</geoidheight>
	</trkpt>
	<trkpt lat="50.769332" lon="6.095345">
		<ele>232</ele>
		<time>2011-09-11T15:07:13.726Z</time>
		<geoidheight>186</geoidheight>
	</trkpt>
	<trkpt lat="50.769437" lon="6.095363">
		<ele>232</ele>
		<time>2011-09-11T15:07:14.725Z</time>
		<geoidheight>186</geoidheight>
	</trkpt>
	<trkpt lat="50.769543" lon="6.095382">
		<ele>231</ele>
		<time>2011-09-11T15:07:15.731Z</time>
		<geoidheight>185</geoidheight>
	</trkpt>
	<trkpt lat="50.769651" lon="6.095400">
		<ele>231</ele>
		<time>2011-09-11T15:07:16.724Z</time>
		<geoidheight>185</geoidheight>
	</trkpt>
	<trkpt lat="50.769759" lon="6.095422">
		<ele>231</ele>
		<time>2011-09-11T15:07:17.718Z</time>
		<geoidheight>185</geoidheight>
	</trkpt>
	<trkpt lat="50.769870" lon="6.095448">
		<ele>230</ele>
		<time>2011-09-11T15:07:18.718Z</time>
		<geoidheight>184</geoidheight>
	</trkpt>
	<trkpt lat="50.769982" lon="6.095480">
		<ele>230</ele>
		<time>2011-09-11T15:07:19.718Z</time>
		<geoidheight>184</geoidheight>
	</trkpt>
	<trkpt lat="50.770095" lon="6.095510">
		<ele>229</ele>
		<time>2011-09-11T15:07:20.720Z</time>
		<geoidheight>183</geoidheight>
	</trkpt>
	<trkpt lat="50.770206" lon="6.095541">
		<ele>229</ele>
		<time>2011-09-11T15:07:21.720Z</time>
		<geoidheight>183</geoidheight>
	</trkpt>
	<trkpt lat="50.770318" lon="6.095569">
		<ele>228</ele>
		<time>2011-09-11T15:07:22.718Z</time>
		<geoidheight>182</geoidheight>
	</trkpt>
	<trkpt lat="50.770427" lon="6.095596">
		<ele>228</ele>
		<time>2011-09-11T15:07:23.720Z</time>
		<geoidheight>182</geoidheight>
	</trkpt>
	<trkpt lat="50.770536" lon="6.095623">
		<ele>228</ele>
		<time>2011-09-11T15:07:24.719Z</time>
		<geoidheight>182</geoidheight>
	</trkpt>
	<trkpt lat="50.770650" lon="6.095649">
		<ele>228</ele>
		<time>2011-09-11T15:07:25.719Z</time>
		<geoidheight>182</geoidheight>
	</trkpt>
	<trkpt lat="50.770770" lon="6.095676">
		<ele>229</ele>
		<time>2011-09-11T15:07:26.720Z</time>
		<geoidheight>183</geoidheight>
	</trkpt>
	<trkpt lat="50.770892" lon="6.095704">
		<ele>229</ele>
		<time>2011-09-11T15:07:27.718Z</time>
		<geoidheight>183</geoidheight>
	</trkpt>
	<trkpt lat="50.771017" lon="6.095730">
		<ele>229</ele>
		<time>2011-09-11T15:07:28.719Z</time>
		<geoidheight>183</geoidheight>
	</trkpt>
	<trkpt lat="50.771143" lon="6.095755">
		<ele>229</ele>
		<time>2011-09-11T15:07:29.721Z</time>
		<geoidheight>183</geoidheight>
	</trkpt>
	<trkpt lat="50.771271" lon="6.095780">
		<ele>229</ele>
		<time>2011-09-11T15:07:30.721Z</time>
		<geoidheight>183</geoidheight>
	</trkpt>
	<trkpt lat="50.771401" lon="6.095802">
		<ele>230</ele>
		<time>2011-09-11T15:07:31.719Z</time>
		<geoidheight>184</geoidheight>
	</trkpt>
	<trkpt lat="50.771536" lon="6.095823">
		<ele>230</ele>
		<time>2011-09-11T15:07:32.719Z</time>
		<geoidheight>184</geoidheight>
	</trkpt>
	<trkpt lat="50.771672" lon="6.095838">
		<ele>230</ele>
		<time>2011-09-11T15:07:33.720Z</time>
		<geoidheight>184</geoidheight>
	</trkpt>
	<trkpt lat="50.771813" lon="6.095855">
		<ele>230</ele>
		<time>2011-09-11T15:07:34.718Z</time>
		<geoidheight>184</geoidheight>
	</trkpt>
	<trkpt lat="50.771958" lon="6.095872">
		<ele>230</ele>
		<time>2011-09-11T15:07:35.721Z</time>
		<geoidheight>184</geoidheight>
	</trkpt>
	<trkpt lat="50.772105" lon="6.095889">
		<ele>230</ele>
		<time>2011-09-11T15:07:36.725Z</time>
		<geoidheight>184</geoidheight>
	</trkpt>
	<trkpt lat="50.772252" lon="6.095906">
		<ele>230</ele>
		<time>2011-09-11T15:07:37.722Z</time>
		<geoidheight>184</geoidheight>
	</trkpt>
	<trkpt lat="50.772398" lon="6.095921">
		<ele>230</ele>
		<time>2011-09-11T15:07:38.727Z</time>
		<geoidheight>184</geoidheight>
	</trkpt>
	<trkpt lat="50.772543" lon="6.095934">
		<ele>231</ele>
		<time>2011-09-11T15:07:39.721Z</time>
		<geoidheight>185</geoidheight>
	</trkpt>
	<trkpt lat="50.772684" lon="6.095946">
		<ele>231</ele>
		<time>2011-09-11T15:07:40.719Z</time>
		<geoidheight>185</geoidheight>
	</trkpt>
	<trkpt lat="50.772814" lon="6.095962">
		<ele>231</ele>
		<time>2011-09-11T15:07:41.723Z</time>
		<geoidheight>185</geoidheight>
	</trkpt>
	<trkpt lat="50.772933" lon="6.095975">
		<ele>231</ele>
		<time>2011-09-11T15:07:42.719Z</time>
		<geoidheight>185</geoidheight>
	</trkpt>
	<trkpt lat="50.773047" lon="6.095984">
		<ele>231</ele>
		<time>2011-09-11T15:07:43.718Z</time>
		<geoidheight>185</geoidheight>
	</trkpt>
	<trkpt lat="50.773154" lon="6.095991">
		<ele>230</ele>
		<time>2011-09-11T15:07:44.720Z</time>
		<geoidheight>184</geoidheight>
	</trkpt>
	<trkpt lat="50.773256" lon="6.095998">
		<ele>230</ele>
		<time>2011-09-11T15:07:45.719Z</time>
		<geoidheight>184</geoidheight>
	</trkpt>
	<trkpt lat="50.773370" lon="6.096023">
		<ele>231</ele>
		<time>2011-09-11T15:07:46.718Z</time>
		<geoidheight>185</geoidheight>
	</trkpt>
	<trkpt lat="50.773489" lon="6.096058">
		<ele>232</ele>
		<time>2011-09-11T15:07:47.718Z</time>
		<geoidheight>186</geoidheight>
	</trkpt>
	<trkpt lat="50.773594" lon="6.096080">
		<ele>233</ele>
		<time>2011-09-11T15:07:48.719Z</time>
		<geoidheight>187</geoidheight>
	</trkpt>
	<trkpt lat="50.773656" lon="6.096084">
		<ele>234</ele>
		<time>2011-09-11T15:07:49.720Z</time>
		<geoidheight>188</geoidheight>
	</trkpt>
	<trkpt lat="50.773720" lon="6.096090">
		<ele>235</ele>
		<time>2011-09-11T15:07:50.719Z</time>
		<geoidheight>189</geoidheight>
	</trkpt>
	<trkpt lat="50.773720" lon="6.096090">
		<ele>235</ele>
		<time>2011-09-11T15:07:51.721Z</time>
		<geoidheight>189</geoidheight>
	</trkpt>
	<trkpt lat="50.773720" lon="6.096090">
		<ele>235</ele>
		<time>2011-09-11T15:07:52.722Z</time>
		<geoidheight>189</geoidheight>
	</trkpt>
	<trkpt lat="50.773817" lon="6.096099">
		<ele>235</ele>
		<time>2011-09-11T15:07:53.720Z</time>
		<geoidheight>189</geoidheight>
	</trkpt>
	<trkpt lat="50.773817" lon="6.096099">
		<ele>235</ele>
		<time>2011-09-11T15:08:01.721Z</time>
		<geoidheight>189</geoidheight>
	</trkpt>
	<trkpt lat="50.773909" lon="6.096047">
		<ele>236</ele>
		<time>2011-09-11T15:08:02.719Z</time>
		<geoidheight>190</geoidheight>
	</trkpt>
	<trkpt lat="50.773909" lon="6.096047">
		<ele>236</ele>
		<time>2011-09-11T15:08:34.718Z</time>
		<geoidheight>190</geoidheight>
	</trkpt>
	<trkpt lat="50.773964" lon="6.096066">
		<ele>234</ele>
		<time>2011-09-11T15:08:35.719Z</time>
		<geoidheight>188</geoidheight>
	</trkpt>
	<trkpt lat="50.774046" lon="6.096070">
		<ele>233</ele>
		<time>2011-09-11T15:08:36.718Z</time>
		<geoidheight>187</geoidheight>
	</trkpt>
	<trkpt lat="50.774161" lon="6.096081">
		<ele>232</ele>
		<time>2011-09-11T15:08:37.722Z</time>
		<geoidheight>186</geoidheight>
	</trkpt>
	<trkpt lat="50.774301" lon="6.096088">
		<ele>231</ele>
		<time>2011-09-11T15:08:38.720Z</time>
		<geoidheight>185</geoidheight>
	</trkpt>
	<trkpt lat="50.774451" lon="6.096067">
		<ele>231</ele>
		<time>2011-09-11T15:08:39.723Z</time>
		<geoidheight>185</geoidheight>
	</trkpt>
	<trkpt lat="50.774601" lon="6.096052">
		<ele>231</ele>
		<time>2011-09-11T15:08:40.721Z</time>
		<geoidheight>185</geoidheight>
	</trkpt>
	<trkpt lat="50.774750" lon="6.096040">
		<ele>231</ele>
		<time>2011-09-11T15:08:41.727Z</time>
		<geoidheight>185</geoidheight>
	</trkpt>
	<trkpt lat="50.774896" lon="6.096030">
		<ele>232</ele>
		<time>2011-09-11T15:08:42.729Z</time>
		<geoidheight>186</geoidheight>
	</trkpt>
	<trkpt lat="50.775031" lon="6.096025">
		<ele>232</ele>
		<time>2011-09-11T15:08:43.724Z</time>
		<geoidheight>186</geoidheight>
	</trkpt>
	<trkpt lat="50.775155" lon="6.096000">
		<ele>232</ele>
		<time>2011-09-11T15:08:44.720Z</time>
		<geoidheight>186</geoidheight>
	</trkpt>
	<trkpt lat="50.775276" lon="6.095958">
		<ele>232</ele>
		<time>2011-09-11T15:08:45.717Z</time>
		<geoidheight>186</geoidheight>
	</trkpt>
	<trkpt lat="50.775388" lon="6.095885">
		<ele>233</ele>
		<time>2011-09-11T15:08:46.719Z</time>
		<geoidheight>187</geoidheight>
	</trkpt>
	<trkpt lat="50.775505" lon="6.095802">
		<ele>233</ele>
		<time>2011-09-11T15:08:47.719Z</time>
		<geoidheight>187</geoidheight>
	</trkpt>
	<trkpt lat="50.775622" lon="6.095718">
		<ele>233</ele>
		<time>2011-09-11T15:08:48.722Z</time>
		<geoidheight>187</geoidheight>
	</trkpt>
	<trkpt lat="50.775728" lon="6.095634">
		<ele>232</ele>
		<time>2011-09-11T15:08:49.720Z</time>
		<geoidheight>186</geoidheight>
	</trkpt>
	<trkpt lat="50.775830" lon="6.095552">
		<ele>232</ele>
		<time>2011-09-11T15:08:50.721Z</time>
		<geoidheight>186</geoidheight>
	</trkpt>
	<trkpt lat="50.775920" lon="6.095470">
		<ele>232</ele>
		<time>2011-09-11T15:08:51.726Z</time>
		<geoidheight>186</geoidheight>
	</trkpt>
	<trkpt lat="50.776006" lon="6.095386">
		<ele>232</ele>
		<time>2011-09-11T15:08:52.734Z</time>
		<geoidheight>186</geoidheight>
	</trkpt>
	<trkpt lat="50.776096" lon="6.095304">
		<ele>232</ele>
		<time>2011-09-11T15:08:53.744Z</time>
		<geoidheight>186</geoidheight>
	</trkpt>
	<trkpt lat="50.776184" lon="6.095224">
		<ele>232</ele>
		<time>2011-09-11T15:08:54.746Z</time>
		<geoidheight>186</geoidheight>
	</trkpt>
	<trkpt lat="50.776268" lon="6.095143">
		<ele>231</ele>
		<time>2011-09-11T15:08:55.748Z</time>
		<geoidheight>185</geoidheight>
	</trkpt>
	<trkpt lat="50.776349" lon="6.095062">
		<ele>231</ele>
		<time>2011-09-11T15:08:56.727Z</time>
		<geoidheight>185</geoidheight>
	</trkpt>
	<trkpt lat="50.776429" lon="6.094983">
		<ele>231</ele>
		<time>2011-09-11T15:08:57.738Z</time>
		<geoidheight>185</geoidheight>
	</trkpt>
	<trkpt lat="50.776508" lon="6.094903">
		<ele>231</ele>
		<time>2011-09-11T15:08:58.727Z</time>
		<geoidheight>185</geoidheight>
	</trkpt>
	<trkpt lat="50.776585" lon="6.094823">
		<ele>231</ele>
		<time>2011-09-11T15:08:59.719Z</time>
		<geoidheight>185</geoidheight>
	</trkpt>
	<trkpt lat="50.776662" lon="6.094743">
		<ele>231</ele>
		<time>2011-09-11T15:09:00.723Z</time>
		<geoidheight>185</geoidheight>
	</trkpt>
	<trkpt lat="50.776738" lon="6.094662">
		<ele>231</ele>
		<time>2011-09-11T15:09:01.719Z</time>
		<geoidheight>185</geoidheight>
	</trkpt>
	<trkpt lat="50.776814" lon="6.094583">
		<ele>231</ele>
		<time>2011-09-11T15:09:02.720Z</time>
		<geoidheight>185</geoidheight>
	</trkpt>
	<trkpt lat="50.776889" lon="6.094505">
		<ele>231</ele>
		<time>2011-09-11T15:09:03.720Z</time>
		<geoidheight>185</geoidheight>
	</trkpt>
	<trkpt lat="50.776976" lon="6.094429">
		<ele>230</ele>
		<time>2011-09-11T15:09:04.722Z</time>
		<geoidheight>184</geoidheight>
	</trkpt>
	<trkpt lat="50.777064" lon="6.094359">
		<ele>230</ele>
		<time>2011-09-11T15:09:05.721Z</time>
		<geoidheight>184</geoidheight>
	</trkpt>
	<trkpt lat="50.777157" lon="6.094292">
		<ele>230</ele>
		<time>2011-09-11T15:09:06.725Z</time>
		<geoidheight>184</geoidheight>
	</trkpt>
	<trkpt lat="50.777267" lon="6.094266">
		<ele>230</ele>
		<time>2011-09-11T15:09:07.722Z</time>
		<geoidheight>184</geoidheight>
	</trkpt>
	<trkpt lat="50.777376" lon="6.094238">
		<ele>230</ele>
		<time>2011-09-11T15:09:08.719Z</time>
		<geoidheight>184</geoidheight>
	</trkpt>
	<trkpt lat="50.777483" lon="6.094207">
		<ele>230</ele>
		<time>2011-09-11T15:09:09.718Z</time>
		<geoidheight>184</geoidheight>
	</trkpt>
	<trkpt lat="50.777582" lon="6.094199">
		<ele>229</ele>
		<time>2011-09-11T15:09:10.722Z</time>
		<geoidheight>183</geoidheight>
	</trkpt>
	<trkpt lat="50.777678" lon="6.094203">
		<ele>229</ele>
		<time>2011-09-11T15:09:11.719Z</time>
		<geoidheight>183</geoidheight>
	</trkpt>
	<trkpt lat="50.777762" lon="6.094215">
		<ele>229</ele>
		<time>2011-09-11T15:09:12.720Z</time>
		<geoidheight>183</geoidheight>
	</trkpt>
	<trkpt lat="50.777841" lon="6.094233">
		<ele>228</ele>
		<time>2011-09-11T15:09:13.721Z</time>
		<geoidheight>182</geoidheight>
	</trkpt>
	<trkpt lat="50.777917" lon="6.094280">
		<ele>227</ele>
		<time>2011-09-11T15:09:14.718Z</time>
		<geoidheight>181</geoidheight>
	</trkpt>
	<trkpt lat="50.777989" lon="6.094323">
		<ele>225</ele>
		<time>2011-09-11T15:09:15.720Z</time>
		<geoidheight>179</geoidheight>
	</trkpt>
	<trkpt lat="50.778058" lon="6.094359">
		<ele>223</ele>
		<time>2011-09-11T15:09:16.720Z</time>
		<geoidheight>177</geoidheight>
	</trkpt>
	<trkpt lat="50.778119" lon="6.094398">
		<ele>222</ele>
		<time>2011-09-11T15:09:17.720Z</time>
		<geoidheight>176</geoidheight>
	</trkpt>
	<trkpt lat="50.778172" lon="6.094427">
		<ele>221</ele>
		<time>2011-09-11T15:09:18.719Z</time>
		<geoidheight>175</geoidheight>
	</trkpt>
	<trkpt lat="50.778220" lon="6.094451">
		<ele>220</ele>
		<time>2011-09-11T15:09:19.725Z</time>
		<geoidheight>174</geoidheight>
	</trkpt>
	<trkpt lat="50.778267" lon="6.094478">
		<ele>219</ele>
		<time>2011-09-11T15:09:20.721Z</time>
		<geoidheight>173</geoidheight>
	</trkpt>
	<trkpt lat="50.778311" lon="6.094515">
		<ele>219</ele>
		<time>2011-09-11T15:09:21.719Z</time>
		<geoidheight>173</geoidheight>
	</trkpt>
	<trkpt lat="50.778351" lon="6.094555">
		<ele>219</ele>
		<time>2011-09-11T15:09:22.720Z</time>
		<geoidheight>173</geoidheight>
	</trkpt>
	<trkpt lat="50.778386" lon="6.094593">
		<ele>220</ele>
		<time>2011-09-11T15:09:23.721Z</time>
		<geoidheight>174</geoidheight>
	</trkpt>
	<trkpt lat="50.778418" lon="6.094628">
		<ele>220</ele>
		<time>2011-09-11T15:09:24.719Z</time>
		<geoidheight>174</geoidheight>
	</trkpt>
	<trkpt lat="50.778445" lon="6.094656">
		<ele>220</ele>
		<time>2011-09-11T15:09:25.726Z</time>
		<geoidheight>174</geoidheight>
	</trkpt>
	<trkpt lat="50.778470" lon="6.094680">
		<ele>220</ele>
		<time>2011-09-11T15:09:26.725Z</time>
		<geoidheight>174</geoidheight>
	</trkpt>
	<trkpt lat="50.778493" lon="6.094704">
		<ele>220</ele>
		<time>2011-09-11T15:09:27.728Z</time>
		<geoidheight>174</geoidheight>
	</trkpt>
	<trkpt lat="50.778519" lon="6.094716">
		<ele>220</ele>
		<time>2011-09-11T15:09:28.721Z</time>
		<geoidheight>174</geoidheight>
	</trkpt>
	<trkpt lat="50.778544" lon="6.094729">
		<ele>220</ele>
		<time>2011-09-11T15:09:29.725Z</time>
		<geoidheight>174</geoidheight>
	</trkpt>
	<trkpt lat="50.778565" lon="6.094743">
		<ele>220</ele>
		<time>2011-09-11T15:09:30.721Z</time>
		<geoidheight>174</geoidheight>
	</trkpt>
	<trkpt lat="50.778585" lon="6.094757">
		<ele>220</ele>
		<time>2011-09-11T15:09:31.719Z</time>
		<geoidheight>174</geoidheight>
	</trkpt>
	<trkpt lat="50.778603" lon="6.094767">
		<ele>221</ele>
		<time>2011-09-11T15:09:32.726Z</time>
		<geoidheight>175</geoidheight>
	</trkpt>
	<trkpt lat="50.778620" lon="6.094778">
		<ele>221</ele>
		<time>2011-09-11T15:09:33.723Z</time>
		<geoidheight>175</geoidheight>
	</trkpt>
	<trkpt lat="50.778637" lon="6.094787">
		<ele>221</ele>
		<time>2011-09-11T15:09:34.723Z</time>
		<geoidheight>175</geoidheight>
	</trkpt>
	<trkpt lat="50.778653" lon="6.094797">
		<ele>221</ele>
		<time>2011-09-11T15:09:35.728Z</time>
		<geoidheight>175</geoidheight>
	</trkpt>
	<trkpt lat="50.778653" lon="6.094797">
		<ele>221</ele>
		<time>2011-09-11T15:09:36.729Z</time>
		<geoidheight>175</geoidheight>
	</trkpt>
	<trkpt lat="50.778653" lon="6.094797">
		<ele>221</ele>
		<time>2011-09-11T15:09:41.730Z</time>
		<geoidheight>175</geoidheight>
	</trkpt>
	<trkpt lat="50.778722" lon="6.094889">
		<ele>221</ele>
		<time>2011-09-11T15:09:42.722Z</time>
		<geoidheight>175</geoidheight>
	</trkpt>
	<trkpt lat="50.778722" lon="6.094889">
		<ele>221</ele>
		<time>2011-09-11T15:09:57.733Z</time>
		<geoidheight>175</geoidheight>
	</trkpt>
	<trkpt lat="50.778800" lon="6.094707">
		<ele>222</ele>
		<time>2011-09-11T15:09:58.743Z</time>
		<geoidheight>176</geoidheight>
	</trkpt>
	<trkpt lat="50.778814" lon="6.094616">
		<ele>222</ele>
		<time>2011-09-11T15:09:59.740Z</time>
		<geoidheight>176</geoidheight>
	</trkpt>
	<trkpt lat="50.778856" lon="6.094477">
		<ele>225</ele>
		<time>2011-09-11T15:10:00.735Z</time>
		<geoidheight>179</geoidheight>
	</trkpt>
	<trkpt lat="50.778922" lon="6.094249">
		<ele>229</ele>
		<time>2011-09-11T15:10:01.725Z</time>
		<geoidheight>183</geoidheight>
	</trkpt>
	<trkpt lat="50.778984" lon="6.094016">
		<ele>231</ele>
		<time>2011-09-11T15:10:02.719Z</time>
		<geoidheight>185</geoidheight>
	</trkpt>
	<trkpt lat="50.779049" lon="6.093784">
		<ele>233</ele>
		<time>2011-09-11T15:10:03.738Z</time>
		<geoidheight>187</geoidheight>
	</trkpt>
	<trkpt lat="50.779123" lon="6.093540">
		<ele>235</ele>
		<time>2011-09-11T15:10:04.726Z</time>
		<geoidheight>189</geoidheight>
	</trkpt>
	<trkpt lat="50.779199" lon="6.093301">
		<ele>236</ele>
		<time>2011-09-11T15:10:05.732Z</time>
		<geoidheight>190</geoidheight>
	</trkpt>
	<trkpt lat="50.779283" lon="6.093069">
		<ele>238</ele>
		<time>2011-09-11T15:10:06.723Z</time>
		<geoidheight>192</geoidheight>
	</trkpt>
	<trkpt lat="50.779362" lon="6.092843">
		<ele>239</ele>
		<time>2011-09-11T15:10:07.722Z</time>
		<geoidheight>193</geoidheight>
	</trkpt>
	<trkpt lat="50.779446" lon="6.092629">
		<ele>240</ele>
		<time>2011-09-11T15:10:08.719Z</time>
		<geoidheight>194</geoidheight>
	</trkpt>
	<trkpt lat="50.779530" lon="6.092420">
		<ele>240</ele>
		<time>2011-09-11T15:10:09.730Z</time>
		<geoidheight>194</geoidheight>
	</trkpt>
	<trkpt lat="50.779613" lon="6.092216">
		<ele>241</ele>
		<time>2011-09-11T15:10:10.725Z</time>
		<geoidheight>195</geoidheight>
	</trkpt>
	<trkpt lat="50.779696" lon="6.092018">
		<ele>241</ele>
		<time>2011-09-11T15:10:11.731Z</time>
		<geoidheight>195</geoidheight>
	</trkpt>
	<trkpt lat="50.779780" lon="6.091822">
		<ele>242</ele>
		<time>2011-09-11T15:10:12.737Z</time>
		<geoidheight>196</geoidheight>
	</trkpt>
	<trkpt lat="50.779864" lon="6.091628">
		<ele>243</ele>
		<time>2011-09-11T15:10:13.750Z</time>
		<geoidheight>197</geoidheight>
	</trkpt>
	<trkpt lat="50.779953" lon="6.091434">
		<ele>243</ele>
		<time>2011-09-11T15:10:14.728Z</time>
		<geoidheight>197</geoidheight>
	</trkpt>
	<trkpt lat="50.780041" lon="6.091247">
		<ele>243</ele>
		<time>2011-09-11T15:10:15.723Z</time>
		<geoidheight>197</geoidheight>
	</trkpt>
	<trkpt lat="50.780127" lon="6.091076">
		<ele>243</ele>
		<time>2011-09-11T15:10:16.733Z</time>
		<geoidheight>197</geoidheight>
	</trkpt>
	<trkpt lat="50.780209" lon="6.090922">
		<ele>243</ele>
		<time>2011-09-11T15:10:17.741Z</time>
		<geoidheight>197</geoidheight>
	</trkpt>
	<trkpt lat="50.780293" lon="6.090773">
		<ele>243</ele>
		<time>2011-09-11T15:10:18.741Z</time>
		<geoidheight>197</geoidheight>
	</trkpt>
	<trkpt lat="50.780376" lon="6.090632">
		<ele>243</ele>
		<time>2011-09-11T15:10:19.738Z</time>
		<geoidheight>197</geoidheight>
	</trkpt>
	<trkpt lat="50.780456" lon="6.090497">
		<ele>243</ele>
		<time>2011-09-11T15:10:20.731Z</time>
		<geoidheight>197</geoidheight>
	</trkpt>
	<trkpt lat="50.780537" lon="6.090368">
		<ele>243</ele>
		<time>2011-09-11T15:10:21.737Z</time>
		<geoidheight>197</geoidheight>
	</trkpt>
	<trkpt lat="50.780617" lon="6.090232">
		<ele>243</ele>
		<time>2011-09-11T15:10:22.723Z</time>
		<geoidheight>197</geoidheight>
	</trkpt>
	<trkpt lat="50.780696" lon="6.090086">
		<ele>242</ele>
		<time>2011-09-11T15:10:23.720Z</time>
		<geoidheight>196</geoidheight>
	</trkpt>
	<trkpt lat="50.780774" lon="6.089936">
		<ele>242</ele>
		<time>2011-09-11T15:10:24.719Z</time>
		<geoidheight>196</geoidheight>
	</trkpt>
	<trkpt lat="50.780852" lon="6.089775">
		<ele>242</ele>
		<time>2011-09-11T15:10:25.720Z</time>
		<geoidheight>196</geoidheight>
	</trkpt>
	<trkpt lat="50.780935" lon="6.089605">
		<ele>242</ele>
		<time>2011-09-11T15:10:26.720Z</time>
		<geoidheight>196</geoidheight>
	</trkpt>
	<trkpt lat="50.781022" lon="6.089430">
		<ele>243</ele>
		<time>2011-09-11T15:10:27.721Z</time>
		<geoidheight>197</geoidheight>
	</trkpt>
	<trkpt lat="50.781107" lon="6.089261">
		<ele>243</ele>
		<time>2011-09-11T15:10:28.720Z</time>
		<geoidheight>197</geoidheight>
	</trkpt>
	<trkpt lat="50.781184" lon="6.089079">
		<ele>243</ele>
		<time>2011-09-11T15:10:29.720Z</time>
		<geoidheight>197</geoidheight>
	</trkpt>
	<trkpt lat="50.781256" lon="6.088894">
		<ele>243</ele>
		<time>2011-09-11T15:10:30.722Z</time>
		<geoidheight>197</geoidheight>
	</trkpt>
	<trkpt lat="50.781326" lon="6.088715">
		<ele>243</ele>
		<time>2011-09-11T15:10:31.721Z</time>
		<geoidheight>197</geoidheight>
	</trkpt>
	<trkpt lat="50.781396" lon="6.088543">
		<ele>243</ele>
		<time>2011-09-11T15:10:32.720Z</time>
		<geoidheight>197</geoidheight>
	</trkpt>
	<trkpt lat="50.781467" lon="6.088365">
		<ele>243</ele>
		<time>2011-09-11T15:10:33.722Z</time>
		<geoidheight>197</geoidheight>
	</trkpt>
	<trkpt lat="50.781538" lon="6.088187">
		<ele>243</ele>
		<time>2011-09-11T15:10:34.722Z</time>
		<geoidheight>197</geoidheight>
	</trkpt>
	<trkpt lat="50.781609" lon="6.087998">
		<ele>242</ele>
		<time>2011-09-11T15:10:35.725Z</time>
		<geoidheight>196</geoidheight>
	</trkpt>
	<trkpt lat="50.781682" lon="6.087806">
		<ele>241</ele>
		<time>2011-09-11T15:10:36.728Z</time>
		<geoidheight>195</geoidheight>
	</trkpt>
	<trkpt lat="50.781752" lon="6.087610">
		<ele>242</ele>
		<time>2011-09-11T15:10:37.725Z</time>
		<geoidheight>196</geoidheight>
	</trkpt>
	<trkpt lat="50.781795" lon="6.087398">
		<ele>242</ele>
		<time>2011-09-11T15:10:38.744Z</time>
		<geoidheight>196</geoidheight>
	</trkpt>
	<trkpt lat="50.781840" lon="6.087191">
		<ele>242</ele>
		<time>2011-09-11T15:10:39.728Z</time>
		<geoidheight>196</geoidheight>
	</trkpt>
	<trkpt lat="50.781883" lon="6.086986">
		<ele>241</ele>
		<time>2011-09-11T15:10:40.723Z</time>
		<geoidheight>195</geoidheight>
	</trkpt>
	<trkpt lat="50.781924" lon="6.086786">
		<ele>241</ele>
		<time>2011-09-11T15:10:41.720Z</time>
		<geoidheight>195</geoidheight>
	</trkpt>
	<trkpt lat="50.781965" lon="6.086586">
		<ele>241</ele>
		<time>2011-09-11T15:10:42.721Z</time>
		<geoidheight>195</geoidheight>
	</trkpt>
	<trkpt lat="50.782002" lon="6.086381">
		<ele>240</ele>
		<time>2011-09-11T15:10:43.721Z</time>
		<geoidheight>194</geoidheight>
	</trkpt>
	<trkpt lat="50.782033" lon="6.086172">
		<ele>239</ele>
		<time>2011-09-11T15:10:44.721Z</time>
		<geoidheight>193</geoidheight>
	</trkpt>
	<trkpt lat="50.782062" lon="6.085964">
		<ele>238</ele>
		<time>2011-09-11T15:10:45.720Z</time>
		<geoidheight>192</geoidheight>
	</trkpt>
	<trkpt lat="50.782089" lon="6.085760">
		<ele>237</ele>
		<time>2011-09-11T15:10:46.731Z</time>
		<geoidheight>191</geoidheight>
	</trkpt>
	<trkpt lat="50.782125" lon="6.085554">
		<ele>237</ele>
		<time>2011-09-11T15:10:47.748Z</time>
		<geoidheight>191</geoidheight>
	</trkpt>
	<trkpt lat="50.782157" lon="6.085347">
		<ele>236</ele>
		<time>2011-09-11T15:10:48.748Z</time>
		<geoidheight>190</geoidheight>
	</trkpt>
	<trkpt lat="50.782188" lon="6.085140">
		<ele>235</ele>
		<time>2011-09-11T15:10:49.749Z</time>
		<geoidheight>189</geoidheight>
	</trkpt>
	<trkpt lat="50.782218" lon="6.084935">
		<ele>235</ele>
		<time>2011-09-11T15:10:50.726Z</time>
		<geoidheight>189</geoidheight>
	</trkpt>
	<trkpt lat="50.782251" lon="6.084728">
		<ele>235</ele>
		<time>2011-09-11T15:10:51.747Z</time>
		<geoidheight>189</geoidheight>
	</trkpt>
	<trkpt lat="50.782282" lon="6.084520">
		<ele>234</ele>
		<time>2011-09-11T15:10:52.737Z</time>
		<geoidheight>188</geoidheight>
	</trkpt>
	<trkpt lat="50.782312" lon="6.084317">
		<ele>234</ele>
		<time>2011-09-11T15:10:53.725Z</time>
		<geoidheight>188</geoidheight>
	</trkpt>
	<trkpt lat="50.782338" lon="6.084118">
		<ele>235</ele>
		<time>2011-09-11T15:10:54.721Z</time>
		<geoidheight>189</geoidheight>
	</trkpt>
	<trkpt lat="50.782361" lon="6.083930">
		<ele>235</ele>
		<time>2011-09-11T15:10:55.720Z</time>
		<geoidheight>189</geoidheight>
	</trkpt>
	<trkpt lat="50.782381" lon="6.083744">
		<ele>235</ele>
		<time>2011-09-11T15:10:56.721Z</time>
		<geoidheight>189</geoidheight>
	</trkpt>
	<trkpt lat="50.782403" lon="6.083554">
		<ele>235</ele>
		<time>2011-09-11T15:10:57.720Z</time>
		<geoidheight>189</geoidheight>
	</trkpt>
	<trkpt lat="50.782416" lon="6.083350">
		<ele>235</ele>
		<time>2011-09-11T15:10:58.720Z</time>
		<geoidheight>189</geoidheight>
	</trkpt>
	<trkpt lat="50.782428" lon="6.083146">
		<ele>235</ele>
		<time>2011-09-11T15:10:59.731Z</time>
		<geoidheight>189</geoidheight>
	</trkpt>
	<trkpt lat="50.782440" lon="6.082939">
		<ele>235</ele>
		<time>2011-09-11T15:11:00.723Z</time>
		<geoidheight>189</geoidheight>
	</trkpt>
	<trkpt lat="50.782453" lon="6.082736">
		<ele>235</ele>
		<time>2011-09-11T15:11:01.726Z</time>
		<geoidheight>189</geoidheight>
	</trkpt>
	<trkpt lat="50.782465" lon="6.082536">
		<ele>235</ele>
		<time>2011-09-11T15:11:02.731Z</time>
		<geoidheight>189</geoidheight>
	</trkpt>
	<trkpt lat="50.782475" lon="6.082349">
		<ele>235</ele>
		<time>2011-09-11T15:11:03.723Z</time>
		<geoidheight>189</geoidheight>
	</trkpt>
	<trkpt lat="50.782485" lon="6.082166">
		<ele>235</ele>
		<time>2011-09-11T15:11:04.719Z</time>
		<geoidheight>189</geoidheight>
	</trkpt>
	<trkpt lat="50.782483" lon="6.081983">
		<ele>234</ele>
		<time>2011-09-11T15:11:05.720Z</time>
		<geoidheight>188</geoidheight>
	</trkpt>
	<trkpt lat="50.782479" lon="6.081806">
		<ele>234</ele>
		<time>2011-09-11T15:11:06.719Z</time>
		<geoidheight>188</geoidheight>
	</trkpt>
	<trkpt lat="50.782467" lon="6.081623">
		<ele>234</ele>
		<time>2011-09-11T15:11:07.720Z</time>
		<geoidheight>188</geoidheight>
	</trkpt>
	<trkpt lat="50.782446" lon="6.081454">
		<ele>234</ele>
		<time>2011-09-11T15:11:08.725Z</time>
		<geoidheight>188</geoidheight>
	</trkpt>
	<trkpt lat="50.782430" lon="6.081289">
		<ele>234</ele>
		<time>2011-09-11T15:11:09.721Z</time>
		<geoidheight>188</geoidheight>
	</trkpt>
	<trkpt lat="50.782408" lon="6.081161">
		<ele>233</ele>
		<time>2011-09-11T15:11:10.728Z</time>
		<geoidheight>187</geoidheight>
	</trkpt>
	<trkpt lat="50.782383" lon="6.081051">
		<ele>233</ele>
		<time>2011-09-11T15:11:11.733Z</time>
		<geoidheight>187</geoidheight>
	</trkpt>
	<trkpt lat="50.782348" lon="6.080930">
		<ele>233</ele>
		<time>2011-09-11T15:11:12.731Z</time>
		<geoidheight>187</geoidheight>
	</trkpt>
	<trkpt lat="50.782285" lon="6.080818">
		<ele>233</ele>
		<time>2011-09-11T15:11:13.719Z</time>
		<geoidheight>187</geoidheight>
	</trkpt>
	<trkpt lat="50.782213" lon="6.080691">
		<ele>232</ele>
		<time>2011-09-11T15:11:14.720Z</time>
		<geoidheight>186</geoidheight>
	</trkpt>
	<trkpt lat="50.782145" lon="6.080557">
		<ele>232</ele>
		<time>2011-09-11T15:11:15.721Z</time>
		<geoidheight>186</geoidheight>
	</trkpt>
	<trkpt lat="50.782083" lon="6.080417">
		<ele>232</ele>
		<time>2011-09-11T15:11:16.722Z</time>
		<geoidheight>186</geoidheight>
	</trkpt>
	<trkpt lat="50.782027" lon="6.080271">
		<ele>232</ele>
		<time>2011-09-11T15:11:17.720Z</time>
		<geoidheight>186</geoidheight>
	</trkpt>
	<trkpt lat="50.781999" lon="6.080111">
		<ele>232</ele>
		<time>2011-09-11T15:11:18.720Z</time>
		<geoidheight>186</geoidheight>
	</trkpt>
	<trkpt lat="50.781972" lon="6.079957">
		<ele>232</ele>
		<time>2011-09-11T15:11:19.726Z</time>
		<geoidheight>186</geoidheight>
	</trkpt>
	<trkpt lat="50.781944" lon="6.079801">
		<ele>231</ele>
		<time>2011-09-11T15:11:20.722Z</time>
		<geoidheight>185</geoidheight>
	</trkpt>
	<trkpt lat="50.781911" lon="6.079651">
		<ele>230</ele>
		<time>2011-09-11T15:11:21.728Z</time>
		<geoidheight>184</geoidheight>
	</trkpt>
	<trkpt lat="50.781879" lon="6.079505">
		<ele>230</ele>
		<time>2011-09-11T15:11:22.725Z</time>
		<geoidheight>184</geoidheight>
	</trkpt>
	<trkpt lat="50.781829" lon="6.079361">
		<ele>229</ele>
		<time>2011-09-11T15:11:23.722Z</time>
		<geoidheight>183</geoidheight>
	</trkpt>
	<trkpt lat="50.781786" lon="6.079212">
		<ele>229</ele>
		<time>2011-09-11T15:11:24.721Z</time>
		<geoidheight>183</geoidheight>
	</trkpt>
	<trkpt lat="50.781752" lon="6.079061">
		<ele>228</ele>
		<time>2011-09-11T15:11:25.721Z</time>
		<geoidheight>182</geoidheight>
	</trkpt>
	<trkpt lat="50.781724" lon="6.078907">
		<ele>228</ele>
		<time>2011-09-11T15:11:26.722Z</time>
		<geoidheight>182</geoidheight>
	</trkpt>
	<trkpt lat="50.781702" lon="6.078756">
		<ele>227</ele>
		<time>2011-09-11T15:11:27.721Z</time>
		<geoidheight>181</geoidheight>
	</trkpt>
	<trkpt lat="50.781684" lon="6.078609">
		<ele>226</ele>
		<time>2011-09-11T15:11:28.722Z</time>
		<geoidheight>180</geoidheight>
	</trkpt>
	<trkpt lat="50.781663" lon="6.078469">
		<ele>226</ele>
		<time>2011-09-11T15:11:29.718Z</time>
		<geoidheight>180</geoidheight>
	</trkpt>
	<trkpt lat="50.781638" lon="6.078349">
		<ele>226</ele>
		<time>2011-09-11T15:11:30.728Z</time>
		<geoidheight>180</geoidheight>
	</trkpt>
	<trkpt lat="50.781612" lon="6.078234">
		<ele>226</ele>
		<time>2011-09-11T15:11:31.739Z</time>
		<geoidheight>180</geoidheight>
	</trkpt>
	<trkpt lat="50.781582" lon="6.078140">
		<ele>225</ele>
		<time>2011-09-11T15:11:32.729Z</time>
		<geoidheight>179</geoidheight>
	</trkpt>
	<trkpt lat="50.781565" lon="6.078080">
		<ele>225</ele>
		<time>2011-09-11T15:11:33.740Z</time>
		<geoidheight>179</geoidheight>
	</trkpt>
	<trkpt lat="50.781550" lon="6.078028">
		<ele>225</ele>
		<time>2011-09-11T15:11:34.736Z</time>
		<geoidheight>179</geoidheight>
	</trkpt>
	<trkpt lat="50.781535" lon="6.077982">
		<ele>225</ele>
		<time>2011-09-11T15:11:35.722Z</time>
		<geoidheight>179</geoidheight>
	</trkpt>
	<trkpt lat="50.781535" lon="6.077982">
		<ele>225</ele>
		<time>2011-09-11T15:11:36.722Z</time>
		<geoidheight>179</geoidheight>
	</trkpt>
	<trkpt lat="50.781516" lon="6.077926">
		<ele>225</ele>
		<time>2011-09-11T15:11:37.721Z</time>
		<geoidheight>179</geoidheight>
	</trkpt>
	<trkpt lat="50.781516" lon="6.077926">
		<ele>225</ele>
		<time>2011-09-11T15:11:38.721Z</time>
		<geoidheight>179</geoidheight>
	</trkpt>
	<trkpt lat="50.781495" lon="6.077864">
		<ele>225</ele>
		<time>2011-09-11T15:11:39.730Z</time>
		<geoidheight>179</geoidheight>
	</trkpt>
	<trkpt lat="50.781495" lon="6.077864">
		<ele>225</ele>
		<time>2011-09-11T15:11:40.724Z</time>
		<geoidheight>179</geoidheight>
	</trkpt>
	<trkpt lat="50.781469" lon="6.077782">
		<ele>225</ele>
		<time>2011-09-11T15:11:41.734Z</time>
		<geoidheight>179</geoidheight>
	</trkpt>
	<trkpt lat="50.781440" lon="6.077700">
		<ele>224</ele>
		<time>2011-09-11T15:11:42.735Z</time>
		<geoidheight>178</geoidheight>
	</trkpt>
	<trkpt lat="50.781412" lon="6.077620">
		<ele>224</ele>
		<time>2011-09-11T15:11:43.726Z</time>
		<geoidheight>178</geoidheight>
	</trkpt>
	<trkpt lat="50.781383" lon="6.077540">
		<ele>223</ele>
		<time>2011-09-11T15:11:44.758Z</time>
		<geoidheight>177</geoidheight>
	</trkpt>
	<trkpt lat="50.781352" lon="6.077454">
		<ele>223</ele>
		<time>2011-09-11T15:11:45.730Z</time>
		<geoidheight>177</geoidheight>
	</trkpt>
	<trkpt lat="50.781322" lon="6.077362">
		<ele>222</ele>
		<time>2011-09-11T15:11:46.736Z</time>
		<geoidheight>176</geoidheight>
	</trkpt>
	<trkpt lat="50.781286" lon="6.077259">
		<ele>221</ele>
		<time>2011-09-11T15:11:47.721Z</time>
		<geoidheight>175</geoidheight>
	</trkpt>
	<trkpt lat="50.781242" lon="6.077134">
		<ele>221</ele>
		<time>2011-09-11T15:11:48.720Z</time>
		<geoidheight>175</geoidheight>
	</trkpt>
	<trkpt lat="50.781197" lon="6.077005">
		<ele>221</ele>
		<time>2011-09-11T15:11:49.750Z</time>
		<geoidheight>175</geoidheight>
	</trkpt>
	<trkpt lat="50.781144" lon="6.076863">
		<ele>221</ele>
		<time>2011-09-11T15:11:50.721Z</time>
		<geoidheight>175</geoidheight>
	</trkpt>
	<trkpt lat="50.781089" lon="6.076712">
		<ele>220</ele>
		<time>2011-09-11T15:11:51.736Z</time>
		<geoidheight>174</geoidheight>
	</trkpt>
	<trkpt lat="50.781032" lon="6.076575">
		<ele>220</ele>
		<time>2011-09-11T15:11:52.724Z</time>
		<geoidheight>174</geoidheight>
	</trkpt>
	<trkpt lat="50.780975" lon="6.076444">
		<ele>220</ele>
		<time>2011-09-11T15:11:53.721Z</time>
		<geoidheight>174</geoidheight>
	</trkpt>
	<trkpt lat="50.780915" lon="6.076323">
		<ele>220</ele>
		<time>2011-09-11T15:11:54.721Z</time>
		<geoidheight>174</geoidheight>
	</trkpt>
	<trkpt lat="50.780851" lon="6.076202">
		<ele>219</ele>
		<time>2011-09-11T15:11:55.737Z</time>
		<geoidheight>173</geoidheight>
	</trkpt>
	<trkpt lat="50.780785" lon="6.076080">
		<ele>219</ele>
		<time>2011-09-11T15:11:56.723Z</time>
		<geoidheight>173</geoidheight>
	</trkpt>
	<trkpt lat="50.780715" lon="6.075950">
		<ele>219</ele>
		<time>2011-09-11T15:11:57.723Z</time>
		<geoidheight>173</geoidheight>
	</trkpt>
	<trkpt lat="50.780636" lon="6.075812">
		<ele>219</ele>
		<time>2011-09-11T15:11:58.737Z</time>
		<geoidheight>173</geoidheight>
	</trkpt>
	<trkpt lat="50.780560" lon="6.075675">
		<ele>219</ele>
		<time>2011-09-11T15:11:59.724Z</time>
		<geoidheight>173</geoidheight>
	</trkpt>
	<trkpt lat="50.780487" lon="6.075537">
		<ele>219</ele>
		<time>2011-09-11T15:12:00.722Z</time>
		<geoidheight>173</geoidheight>
	</trkpt>
	<trkpt lat="50.780410" lon="6.075397">
		<ele>219</ele>
		<time>2011-09-11T15:12:01.722Z</time>
		<geoidheight>173</geoidheight>
	</trkpt>
	<trkpt lat="50.780324" lon="6.075249">
		<ele>219</ele>
		<time>2011-09-11T15:12:02.723Z</time>
		<geoidheight>173</geoidheight>
	</trkpt>
	<trkpt lat="50.780237" lon="6.075109">
		<ele>219</ele>
		<time>2011-09-11T15:12:03.721Z</time>
		<geoidheight>173</geoidheight>
	</trkpt>
	<trkpt lat="50.780150" lon="6.074970">
		<ele>219</ele>
		<time>2011-09-11T15:12:04.730Z</time>
		<geoidheight>173</geoidheight>
	</trkpt>
	<trkpt lat="50.780060" lon="6.074836">
		<ele>219</ele>
		<time>2011-09-11T15:12:05.728Z</time>
		<geoidheight>173</geoidheight>
	</trkpt>
	<trkpt lat="50.779963" lon="6.074690">
		<ele>219</ele>
		<time>2011-09-11T15:12:06.722Z</time>
		<geoidheight>173</geoidheight>
	</trkpt>
	<trkpt lat="50.779865" lon="6.074545">
		<ele>219</ele>
		<time>2011-09-11T15:12:07.720Z</time>
		<geoidheight>173</geoidheight>
	</trkpt>
	<trkpt lat="50.779800" lon="6.074503">
		<ele>219</ele>
		<time>2011-09-11T15:12:08.721Z</time>
		<geoidheight>173</geoidheight>
	</trkpt>
	<trkpt lat="50.779748" lon="6.074480">
		<ele>218</ele>
		<time>2011-09-11T15:12:09.722Z</time>
		<geoidheight>172</geoidheight>
	</trkpt>
	<trkpt lat="50.779697" lon="6.074454">
		<ele>217</ele>
		<time>2011-09-11T15:12:10.720Z</time>
		<geoidheight>171</geoidheight>
	</trkpt>
	<trkpt lat="50.779659" lon="6.074430">
		<ele>216</ele>
		<time>2011-09-11T15:12:11.720Z</time>
		<geoidheight>170</geoidheight>
	</trkpt>
	<trkpt lat="50.779636" lon="6.074400">
		<ele>214</ele>
		<time>2011-09-11T15:12:12.723Z</time>
		<geoidheight>168</geoidheight>
	</trkpt>
	<trkpt lat="50.779614" lon="6.074367">
		<ele>213</ele>
		<time>2011-09-11T15:12:13.719Z</time>
		<geoidheight>167</geoidheight>
	</trkpt>
	<trkpt lat="50.779597" lon="6.074328">
		<ele>211</ele>
		<time>2011-09-11T15:12:14.721Z</time>
		<geoidheight>165</geoidheight>
	</trkpt>
	<trkpt lat="50.779585" lon="6.074277">
		<ele>210</ele>
		<time>2011-09-11T15:12:15.745Z</time>
		<geoidheight>164</geoidheight>
	</trkpt>
	<trkpt lat="50.779578" lon="6.074217">
		<ele>209</ele>
		<time>2011-09-11T15:12:16.732Z</time>
		<geoidheight>163</geoidheight>
	</trkpt>
	<trkpt lat="50.779574" lon="6.074152">
		<ele>209</ele>
		<time>2011-09-11T15:12:17.724Z</time>
		<geoidheight>163</geoidheight>
	</trkpt>
	<trkpt lat="50.779571" lon="6.074083">
		<ele>208</ele>
		<time>2011-09-11T15:12:18.718Z</time>
		<geoidheight>162</geoidheight>
	</trkpt>
	<trkpt lat="50.779571" lon="6.074003">
		<ele>208</ele>
		<time>2011-09-11T15:12:19.723Z</time>
		<geoidheight>162</geoidheight>
	</trkpt>
	<trkpt lat="50.779612" lon="6.073909">
		<ele>207</ele>
		<time>2011-09-11T15:12:20.721Z</time>
		<geoidheight>161</geoidheight>
	</trkpt>
	<trkpt lat="50.779668" lon="6.073815">
		<ele>207</ele>
		<time>2011-09-11T15:12:21.724Z</time>
		<geoidheight>161</geoidheight>
	</trkpt>
	<trkpt lat="50.779757" lon="6.073692">
		<ele>207</ele>
		<time>2011-09-11T15:12:22.724Z</time>
		<geoidheight>161</geoidheight>
	</trkpt>
	<trkpt lat="50.779847" lon="6.073567">
		<ele>207</ele>
		<time>2011-09-11T15:12:23.721Z</time>
		<geoidheight>161</geoidheight>
	</trkpt>
	<trkpt lat="50.779934" lon="6.073447">
		<ele>207</ele>
		<time>2011-09-11T15:12:24.721Z</time>
		<geoidheight>161</geoidheight>
	</trkpt>
	<trkpt lat="50.780018" lon="6.073329">
		<ele>207</ele>
		<time>2011-09-11T15:12:25.721Z</time>
		<geoidheight>161</geoidheight>
	</trkpt>
	<trkpt lat="50.780100" lon="6.073212">
		<ele>207</ele>
		<time>2011-09-11T15:12:26.727Z</time>
		<geoidheight>161</geoidheight>
	</trkpt>
	<trkpt lat="50.780185" lon="6.073099">
		<ele>207</ele>
		<time>2011-09-11T15:12:27.731Z</time>
		<geoidheight>161</geoidheight>
	</trkpt>
	<trkpt lat="50.780269" lon="6.072990">
		<ele>207</ele>
		<time>2011-09-11T15:12:28.727Z</time>
		<geoidheight>161</geoidheight>
	</trkpt>
	<trkpt lat="50.780352" lon="6.072890">
		<ele>207</ele>
		<time>2011-09-11T15:12:29.741Z</time>
		<geoidheight>161</geoidheight>
	</trkpt>
	<trkpt lat="50.780434" lon="6.072800">
		<ele>206</ele>
		<time>2011-09-11T15:12:30.742Z</time>
		<geoidheight>160</geoidheight>
	</trkpt>
	<trkpt lat="50.780515" lon="6.072715">
		<ele>206</ele>
		<time>2011-09-11T15:12:31.736Z</time>
		<geoidheight>160</geoidheight>
	</trkpt>
	<trkpt lat="50.780586" lon="6.072639">
		<ele>206</ele>
		<time>2011-09-11T15:12:32.737Z</time>
		<geoidheight>160</geoidheight>
	</trkpt>
	<trkpt lat="50.780655" lon="6.072565">
		<ele>206</ele>
		<time>2011-09-11T15:12:33.737Z</time>
		<geoidheight>160</geoidheight>
	</trkpt>
	<trkpt lat="50.780724" lon="6.072500">
		<ele>206</ele>
		<time>2011-09-11T15:12:34.750Z</time>
		<geoidheight>160</geoidheight>
	</trkpt>
	<trkpt lat="50.780787" lon="6.072438">
		<ele>205</ele>
		<time>2011-09-11T15:12:35.726Z</time>
		<geoidheight>159</geoidheight>
	</trkpt>
	<trkpt lat="50.780848" lon="6.072372">
		<ele>205</ele>
		<time>2011-09-11T15:12:36.723Z</time>
		<geoidheight>159</geoidheight>
	</trkpt>
	<trkpt lat="50.780909" lon="6.072307">
		<ele>205</ele>
		<time>2011-09-11T15:12:37.725Z</time>
		<geoidheight>159</geoidheight>
	</trkpt>
	<trkpt lat="50.780963" lon="6.072241">
		<ele>204</ele>
		<time>2011-09-11T15:12:38.728Z</time>
		<geoidheight>158</geoidheight>
	</trkpt>
	<trkpt lat="50.780986" lon="6.072234">
		<ele>204</ele>
		<time>2011-09-11T15:12:39.721Z</time>
		<geoidheight>158</geoidheight>
	</trkpt>
	<trkpt lat="50.781003" lon="6.072226">
		<ele>204</ele>
		<time>2011-09-11T15:12:40.727Z</time>
		<geoidheight>158</geoidheight>
	</trkpt>
	<trkpt lat="50.781020" lon="6.072213">
		<ele>204</ele>
		<time>2011-09-11T15:12:41.748Z</time>
		<geoidheight>158</geoidheight>
	</trkpt>
	<trkpt lat="50.781037" lon="6.072195">
		<ele>204</ele>
		<time>2011-09-11T15:12:42.732Z</time>
		<geoidheight>158</geoidheight>
	</trkpt>
	<trkpt lat="50.781054" lon="6.072172">
		<ele>204</ele>
		<time>2011-09-11T15:12:43.718Z</time>
		<geoidheight>158</geoidheight>
	</trkpt>
	<trkpt lat="50.781068" lon="6.072129">
		<ele>204</ele>
		<time>2011-09-11T15:12:44.735Z</time>
		<geoidheight>158</geoidheight>
	</trkpt>
	<trkpt lat="50.781023" lon="6.072038">
		<ele>204</ele>
		<time>2011-09-11T15:12:45.726Z</time>
		<geoidheight>158</geoidheight>
	</trkpt>
	<trkpt lat="50.780963" lon="6.071958">
		<ele>204</ele>
		<time>2011-09-11T15:12:46.750Z</time>
		<geoidheight>158</geoidheight>
	</trkpt>
	<trkpt lat="50.780853" lon="6.071897">
		<ele>204</ele>
		<time>2011-09-11T15:12:47.736Z</time>
		<geoidheight>158</geoidheight>
	</trkpt>
	<trkpt lat="50.780722" lon="6.071865">
		<ele>204</ele>
		<time>2011-09-11T15:12:48.748Z</time>
		<geoidheight>158</geoidheight>
	</trkpt>
	<trkpt lat="50.780587" lon="6.071852">
		<ele>204</ele>
		<time>2011-09-11T15:12:49.745Z</time>
		<geoidheight>158</geoidheight>
	</trkpt>
	<trkpt lat="50.780533" lon="6.071764">
		<ele>204</ele>
		<time>2011-09-11T15:12:50.747Z</time>
		<geoidheight>158</geoidheight>
	</trkpt>
	<trkpt lat="50.780479" lon="6.071677">
		<ele>204</ele>
		<time>2011-09-11T15:12:51.741Z</time>
		<geoidheight>158</geoidheight>
	</trkpt>
	<trkpt lat="50.780425" lon="6.071590">
		<ele>204</ele>
		<time>2011-09-11T15:12:52.748Z</time>
		<geoidheight>158</geoidheight>
	</trkpt>
	<trkpt lat="50.780371" lon="6.071502">
		<ele>204</ele>
		<time>2011-09-11T15:12:53.736Z</time>
		<geoidheight>158</geoidheight>
	</trkpt>
	<trkpt lat="50.780101" lon="6.071922">
		<ele>204</ele>
		<time>2011-09-11T15:12:54.734Z</time>
		<geoidheight>158</geoidheight>
	</trkpt>
	<trkpt lat="50.779985" lon="6.071900">
		<ele>204</ele>
		<time>2011-09-11T15:12:55.723Z</time>
		<geoidheight>158</geoidheight>
	</trkpt>
	<trkpt lat="50.779878" lon="6.071850">
		<ele>204</ele>
		<time>2011-09-11T15:12:56.719Z</time>
		<geoidheight>158</geoidheight>
	</trkpt>
	<trkpt lat="50.779784" lon="6.071780">
		<ele>201</ele>
		<time>2011-09-11T15:12:57.721Z</time>
		<geoidheight>155</geoidheight>
	</trkpt>
	<trkpt lat="50.779694" lon="6.071695">
		<ele>200</ele>
		<time>2011-09-11T15:12:58.723Z</time>
		<geoidheight>154</geoidheight>
	</trkpt>
	<trkpt lat="50.779610" lon="6.071597">
		<ele>200</ele>
		<time>2011-09-11T15:12:59.721Z</time>
		<geoidheight>154</geoidheight>
	</trkpt>
	<trkpt lat="50.779532" lon="6.071364">
		<ele>200</ele>
		<time>2011-09-11T15:13:00.722Z</time>
		<geoidheight>154</geoidheight>
	</trkpt>
	<trkpt lat="50.779459" lon="6.071082">
		<ele>200</ele>
		<time>2011-09-11T15:13:01.721Z</time>
		<geoidheight>154</geoidheight>
	</trkpt>
	<trkpt lat="50.779384" lon="6.070787">
		<ele>200</ele>
		<time>2011-09-11T15:13:02.723Z</time>
		<geoidheight>154</geoidheight>
	</trkpt>
	<trkpt lat="50.779313" lon="6.070487">
		<ele>200</ele>
		<time>2011-09-11T15:13:03.722Z</time>
		<geoidheight>154</geoidheight>
	</trkpt>
	<trkpt lat="50.779264" lon="6.070173">
		<ele>200</ele>
		<time>2011-09-11T15:13:04.721Z</time>
		<geoidheight>154</geoidheight>
	</trkpt>
	<trkpt lat="50.779246" lon="6.069874">
		<ele>200</ele>
		<time>2011-09-11T15:13:05.722Z</time>
		<geoidheight>154</geoidheight>
	</trkpt>
	<trkpt lat="50.779231" lon="6.069606">
		<ele>200</ele>
		<time>2011-09-11T15:13:06.723Z</time>
		<geoidheight>154</geoidheight>
	</trkpt>
	<trkpt lat="50.779254" lon="6.069361">
		<ele>200</ele>
		<time>2011-09-11T15:13:07.732Z</time>
		<geoidheight>154</geoidheight>
	</trkpt>
	<trkpt lat="50.779268" lon="6.069145">
		<ele>200</ele>
		<time>2011-09-11T15:13:08.722Z</time>
		<geoidheight>154</geoidheight>
	</trkpt>
	<trkpt lat="50.779321" lon="6.068953">
		<ele>200</ele>
		<time>2011-09-11T15:13:09.720Z</time>
		<geoidheight>154</geoidheight>
	</trkpt>
	<trkpt lat="50.779370" lon="6.068772">
		<ele>200</ele>
		<time>2011-09-11T15:13:10.721Z</time>
		<geoidheight>154</geoidheight>
	</trkpt>
	<trkpt lat="50.779414" lon="6.068608">
		<ele>200</ele>
		<time>2011-09-11T15:13:11.721Z</time>
		<geoidheight>154</geoidheight>
	</trkpt>
	<trkpt lat="50.779464" lon="6.068465">
		<ele>200</ele>
		<time>2011-09-11T15:13:12.731Z</time>
		<geoidheight>154</geoidheight>
	</trkpt>
	<trkpt lat="50.779520" lon="6.068327">
		<ele>200</ele>
		<time>2011-09-11T15:13:13.720Z</time>
		<geoidheight>154</geoidheight>
	</trkpt>
	<trkpt lat="50.779577" lon="6.068193">
		<ele>201</ele>
		<time>2011-09-11T15:13:14.735Z</time>
		<geoidheight>155</geoidheight>
	</trkpt>
	<trkpt lat="50.779634" lon="6.068060">
		<ele>201</ele>
		<time>2011-09-11T15:13:15.731Z</time>
		<geoidheight>155</geoidheight>
	</trkpt>
	<trkpt lat="50.779692" lon="6.067934">
		<ele>201</ele>
		<time>2011-09-11T15:13:16.724Z</time>
		<geoidheight>155</geoidheight>
	</trkpt>
	<trkpt lat="50.779753" lon="6.067824">
		<ele>201</ele>
		<time>2011-09-11T15:13:17.722Z</time>
		<geoidheight>155</geoidheight>
	</trkpt>
	<trkpt lat="50.779812" lon="6.067722">
		<ele>201</ele>
		<time>2011-09-11T15:13:18.723Z</time>
		<geoidheight>155</geoidheight>
	</trkpt>
	<trkpt lat="50.779877" lon="6.067626">
		<ele>201</ele>
		<time>2011-09-11T15:13:19.720Z</time>
		<geoidheight>155</geoidheight>
	</trkpt>
	<trkpt lat="50.779945" lon="6.067534">
		<ele>201</ele>
		<time>2011-09-11T15:13:20.724Z</time>
		<geoidheight>155</geoidheight>
	</trkpt>
	<trkpt lat="50.780017" lon="6.067461">
		<ele>201</ele>
		<time>2011-09-11T15:13:21.727Z</time>
		<geoidheight>155</geoidheight>
	</trkpt>
	<trkpt lat="50.780092" lon="6.067394">
		<ele>201</ele>
		<time>2011-09-11T15:13:22.741Z</time>
		<geoidheight>155</geoidheight>
	</trkpt>
	<trkpt lat="50.780170" lon="6.067330">
		<ele>201</ele>
		<time>2011-09-11T15:13:23.754Z</time>
		<geoidheight>155</geoidheight>
	</trkpt>
	<trkpt lat="50.780249" lon="6.067267">
		<ele>200</ele>
		<time>2011-09-11T15:13:24.753Z</time>
		<geoidheight>154</geoidheight>
	</trkpt>
	<trkpt lat="50.780329" lon="6.067203">
		<ele>200</ele>
		<time>2011-09-11T15:13:25.748Z</time>
		<geoidheight>154</geoidheight>
	</trkpt>
	<trkpt lat="50.780409" lon="6.067137">
		<ele>200</ele>
		<time>2011-09-11T15:13:26.753Z</time>
		<geoidheight>154</geoidheight>
	</trkpt>
	<trkpt lat="50.780490" lon="6.067066">
		<ele>200</ele>
		<time>2011-09-11T15:13:27.753Z</time>
		<geoidheight>154</geoidheight>
	</trkpt>
	<trkpt lat="50.780572" lon="6.066987">
		<ele>200</ele>
		<time>2011-09-11T15:13:28.744Z</time>
		<geoidheight>154</geoidheight>
	</trkpt>
	<trkpt lat="50.780654" lon="6.066905">
		<ele>200</ele>
		<time>2011-09-11T15:13:29.742Z</time>
		<geoidheight>154</geoidheight>
	</trkpt>
	<trkpt lat="50.780730" lon="6.066816">
		<ele>200</ele>
		<time>2011-09-11T15:13:30.729Z</time>
		<geoidheight>154</geoidheight>
	</trkpt>
	<trkpt lat="50.780808" lon="6.066719">
		<ele>200</ele>
		<time>2011-09-11T15:13:31.731Z</time>
		<geoidheight>154</geoidheight>
	</trkpt>
	<trkpt lat="50.780891" lon="6.066617">
		<ele>199</ele>
		<time>2011-09-11T15:13:32.730Z</time>
		<geoidheight>153</geoidheight>
	</trkpt>
	<trkpt lat="50.780975" lon="6.066509">
		<ele>199</ele>
		<time>2011-09-11T15:13:33.726Z</time>
		<geoidheight>153</geoidheight>
	</trkpt>
	<trkpt lat="50.781063" lon="6.066382">
		<ele>199</ele>
		<time>2011-09-11T15:13:34.729Z</time>
		<geoidheight>153</geoidheight>
	</trkpt>
	<trkpt lat="50.781154" lon="6.066233">
		<ele>199</ele>
		<time>2011-09-11T15:13:35.734Z</time>
		<geoidheight>153</geoidheight>
	</trkpt>
	<trkpt lat="50.781247" lon="6.066076">
		<ele>199</ele>
		<time>2011-09-11T15:13:36.721Z</time>
		<geoidheight>153</geoidheight>
	</trkpt>
	<trkpt lat="50.781339" lon="6.065920">
		<ele>199</ele>
		<time>2011-09-11T15:13:37.726Z</time>
		<geoidheight>153</geoidheight>
	</trkpt>
	<trkpt lat="50.781419" lon="6.065771">
		<ele>199</ele>
		<time>2011-09-11T15:13:38.733Z</time>
		<geoidheight>153</geoidheight>
	</trkpt>
	<trkpt lat="50.781497" lon="6.065630">
		<ele>199</ele>
		<time>2011-09-11T15:13:39.738Z</time>
		<geoidheight>153</geoidheight>
	</trkpt>
	<trkpt lat="50.781572" lon="6.065492">
		<ele>199</ele>
		<time>2011-09-11T15:13:40.720Z</time>
		<geoidheight>153</geoidheight>
	</trkpt>
	<trkpt lat="50.781640" lon="6.065370">
		<ele>200</ele>
		<time>2011-09-11T15:13:41.723Z</time>
		<geoidheight>154</geoidheight>
	</trkpt>
	<trkpt lat="50.781700" lon="6.065248">
		<ele>200</ele>
		<time>2011-09-11T15:13:42.722Z</time>
		<geoidheight>154</geoidheight>
	</trkpt>
	<trkpt lat="50.781753" lon="6.065134">
		<ele>200</ele>
		<time>2011-09-11T15:13:43.719Z</time>
		<geoidheight>154</geoidheight>
	</trkpt>
	<trkpt lat="50.781799" lon="6.065034">
		<ele>200</ele>
		<time>2011-09-11T15:13:44.723Z</time>
		<geoidheight>154</geoidheight>
	</trkpt>
	<trkpt lat="50.781838" lon="6.064926">
		<ele>200</ele>
		<time>2011-09-11T15:13:45.728Z</time>
		<geoidheight>154</geoidheight>
	</trkpt>
	<trkpt lat="50.781867" lon="6.064840">
		<ele>199</ele>
		<time>2011-09-11T15:13:46.728Z</time>
		<geoidheight>153</geoidheight>
	</trkpt>
	<trkpt lat="50.781880" lon="6.064785">
		<ele>199</ele>
		<time>2011-09-11T15:13:47.736Z</time>
		<geoidheight>153</geoidheight>
	</trkpt>
	<trkpt lat="50.781884" lon="6.064731">
		<ele>198</ele>
		<time>2011-09-11T15:13:48.741Z</time>
		<geoidheight>152</geoidheight>
	</trkpt>
	<trkpt lat="50.781881" lon="6.064672">
		<ele>197</ele>
		<time>2011-09-11T15:13:49.737Z</time>
		<geoidheight>151</geoidheight>
	</trkpt>
	<trkpt lat="50.781876" lon="6.064609">
		<ele>197</ele>
		<time>2011-09-11T15:13:50.736Z</time>
		<geoidheight>151</geoidheight>
	</trkpt>
	<trkpt lat="50.781866" lon="6.064536">
		<ele>196</ele>
		<time>2011-09-11T15:13:51.738Z</time>
		<geoidheight>150</geoidheight>
	</trkpt>
	<trkpt lat="50.781828" lon="6.064454">
		<ele>196</ele>
		<time>2011-09-11T15:13:52.741Z</time>
		<geoidheight>150</geoidheight>
	</trkpt>
	<trkpt lat="50.781743" lon="6.064336">
		<ele>195</ele>
		<time>2011-09-11T15:13:53.750Z</time>
		<geoidheight>149</geoidheight>
	</trkpt>
	<trkpt lat="50.781660" lon="6.064216">
		<ele>195</ele>
		<time>2011-09-11T15:13:54.733Z</time>
		<geoidheight>149</geoidheight>
	</trkpt>
	<trkpt lat="50.781579" lon="6.064098">
		<ele>195</ele>
		<time>2011-09-11T15:13:55.738Z</time>
		<geoidheight>149</geoidheight>
	</trkpt>
	<trkpt lat="50.781500" lon="6.063979">
		<ele>194</ele>
		<time>2011-09-11T15:13:56.735Z</time>
		<geoidheight>148</geoidheight>
	</trkpt>
	<trkpt lat="50.781420" lon="6.063863">
		<ele>194</ele>
		<time>2011-09-11T15:13:57.739Z</time>
		<geoidheight>148</geoidheight>
	</trkpt>
	<trkpt lat="50.781344" lon="6.063751">
		<ele>194</ele>
		<time>2011-09-11T15:13:58.733Z</time>
		<geoidheight>148</geoidheight>
	</trkpt>
	<trkpt lat="50.781270" lon="6.063641">
		<ele>194</ele>
		<time>2011-09-11T15:13:59.737Z</time>
		<geoidheight>148</geoidheight>
	</trkpt>
	<trkpt lat="50.781190" lon="6.063522">
		<ele>194</ele>
		<time>2011-09-11T15:14:00.737Z</time>
		<geoidheight>148</geoidheight>
	</trkpt>
	<trkpt lat="50.781111" lon="6.063404">
		<ele>193</ele>
		<time>2011-09-11T15:14:01.732Z</time>
		<geoidheight>147</geoidheight>
	</trkpt>
	<trkpt lat="50.781036" lon="6.063284">
		<ele>193</ele>
		<time>2011-09-11T15:14:02.739Z</time>
		<geoidheight>147</geoidheight>
	</trkpt>
	<trkpt lat="50.780958" lon="6.063151">
		<ele>193</ele>
		<time>2011-09-11T15:14:03.723Z</time>
		<geoidheight>147</geoidheight>
	</trkpt>
	<trkpt lat="50.780875" lon="6.063002">
		<ele>193</ele>
		<time>2011-09-11T15:14:04.724Z</time>
		<geoidheight>147</geoidheight>
	</trkpt>
	<trkpt lat="50.780794" lon="6.062853">
		<ele>193</ele>
		<time>2011-09-11T15:14:05.722Z</time>
		<geoidheight>147</geoidheight>
	</trkpt>
	<trkpt lat="50.780717" lon="6.062707">
		<ele>192</ele>
		<time>2011-09-11T15:14:06.722Z</time>
		<geoidheight>146</geoidheight>
	</trkpt>
	<trkpt lat="50.780644" lon="6.062561">
		<ele>192</ele>
		<time>2011-09-11T15:14:07.728Z</time>
		<geoidheight>146</geoidheight>
	</trkpt>
	<trkpt lat="50.780593" lon="6.062451">
		<ele>192</ele>
		<time>2011-09-11T15:14:08.723Z</time>
		<geoidheight>146</geoidheight>
	</trkpt>
	<trkpt lat="50.780542" lon="6.062332">
		<ele>192</ele>
		<time>2011-09-11T15:14:09.724Z</time>
		<geoidheight>146</geoidheight>
	</trkpt>
	<trkpt lat="50.780495" lon="6.062222">
		<ele>192</ele>
		<time>2011-09-11T15:14:10.726Z</time>
		<geoidheight>146</geoidheight>
	</trkpt>
	<trkpt lat="50.780450" lon="6.062111">
		<ele>192</ele>
		<time>2011-09-11T15:14:11.733Z</time>
		<geoidheight>146</geoidheight>
	</trkpt>
	<trkpt lat="50.780417" lon="6.062015">
		<ele>192</ele>
		<time>2011-09-11T15:14:12.730Z</time>
		<geoidheight>146</geoidheight>
	</trkpt>
	<trkpt lat="50.780388" lon="6.061919">
		<ele>192</ele>
		<time>2011-09-11T15:14:13.725Z</time>
		<geoidheight>146</geoidheight>
	</trkpt>
	<trkpt lat="50.780363" lon="6.061825">
		<ele>192</ele>
		<time>2011-09-11T15:14:14.749Z</time>
		<geoidheight>146</geoidheight>
	</trkpt>
	<trkpt lat="50.780353" lon="6.061749">
		<ele>192</ele>
		<time>2011-09-11T15:14:15.739Z</time>
		<geoidheight>146</geoidheight>
	</trkpt>
	<trkpt lat="50.780348" lon="6.061675">
		<ele>192</ele>
		<time>2011-09-11T15:14:16.750Z</time>
		<geoidheight>146</geoidheight>
	</trkpt>
	<trkpt lat="50.780360" lon="6.061598">
		<ele>192</ele>
		<time>2011-09-11T15:14:17.751Z</time>
		<geoidheight>146</geoidheight>
	</trkpt>
	<trkpt lat="50.780376" lon="6.061521">
		<ele>192</ele>
		<time>2011-09-11T15:14:18.747Z</time>
		<geoidheight>146</geoidheight>
	</trkpt>
	<trkpt lat="50.780455" lon="6.061411">
		<ele>192</ele>
		<time>2011-09-11T15:14:19.736Z</time>
		<geoidheight>146</geoidheight>
	</trkpt>
	<trkpt lat="50.780531" lon="6.061298">
		<ele>192</ele>
		<time>2011-09-11T15:14:20.739Z</time>
		<geoidheight>146</geoidheight>
	</trkpt>
	<trkpt lat="50.780602" lon="6.061177">
		<ele>193</ele>
		<time>2011-09-11T15:14:21.743Z</time>
		<geoidheight>147</geoidheight>
	</trkpt>
	<trkpt lat="50.780668" lon="6.061051">
		<ele>193</ele>
		<time>2011-09-11T15:14:22.737Z</time>
		<geoidheight>147</geoidheight>
	</trkpt>
	<trkpt lat="50.780726" lon="6.060920">
		<ele>194</ele>
		<time>2011-09-11T15:14:23.750Z</time>
		<geoidheight>148</geoidheight>
	</trkpt>
	<trkpt lat="50.780780" lon="6.060790">
		<ele>194</ele>
		<time>2011-09-11T15:14:24.749Z</time>
		<geoidheight>148</geoidheight>
	</trkpt>
	<trkpt lat="50.780829" lon="6.060660">
		<ele>194</ele>
		<time>2011-09-11T15:14:25.749Z</time>
		<geoidheight>148</geoidheight>
	</trkpt>
	<trkpt lat="50.780871" lon="6.060529">
		<ele>194</ele>
		<time>2011-09-11T15:14:26.739Z</time>
		<geoidheight>148</geoidheight>
	</trkpt>
	<trkpt lat="50.780908" lon="6.060399">
		<ele>195</ele>
		<time>2011-09-11T15:14:27.738Z</time>
		<geoidheight>149</geoidheight>
	</trkpt>
	<trkpt lat="50.780946" lon="6.060279">
		<ele>195</ele>
		<time>2011-09-11T15:14:28.733Z</time>
		<geoidheight>149</geoidheight>
	</trkpt>
	<trkpt lat="50.780984" lon="6.060162">
		<ele>195</ele>
		<time>2011-09-11T15:14:29.735Z</time>
		<geoidheight>149</geoidheight>
	</trkpt>
	<trkpt lat="50.781023" lon="6.060046">
		<ele>195</ele>
		<time>2011-09-11T15:14:30.730Z</time>
		<geoidheight>149</geoidheight>
	</trkpt>
	<trkpt lat="50.781068" lon="6.059935">
		<ele>195</ele>
		<time>2011-09-11T15:14:31.721Z</time>
		<geoidheight>149</geoidheight>
	</trkpt>
	<trkpt lat="50.781110" lon="6.059830">
		<ele>195</ele>
		<time>2011-09-11T15:14:32.723Z</time>
		<geoidheight>149</geoidheight>
	</trkpt>
	<trkpt lat="50.781156" lon="6.059727">
		<ele>195</ele>
		<time>2011-09-11T15:14:33.734Z</time>
		<geoidheight>149</geoidheight>
	</trkpt>
	<trkpt lat="50.781197" lon="6.059629">
		<ele>195</ele>
		<time>2011-09-11T15:14:34.737Z</time>
		<geoidheight>149</geoidheight>
	</trkpt>
	<trkpt lat="50.781241" lon="6.059533">
		<ele>195</ele>
		<time>2011-09-11T15:14:35.749Z</time>
		<geoidheight>149</geoidheight>
	</trkpt>
	<trkpt lat="50.781287" lon="6.059447">
		<ele>196</ele>
		<time>2011-09-11T15:14:36.733Z</time>
		<geoidheight>150</geoidheight>
	</trkpt>
	<trkpt lat="50.781330" lon="6.059374">
		<ele>196</ele>
		<time>2011-09-11T15:14:37.731Z</time>
		<geoidheight>150</geoidheight>
	</trkpt>
	<trkpt lat="50.781369" lon="6.059296">
		<ele>196</ele>
		<time>2011-09-11T15:14:38.738Z</time>
		<geoidheight>150</geoidheight>
	</trkpt>
	<trkpt lat="50.781399" lon="6.059238">
		<ele>195</ele>
		<time>2011-09-11T15:14:39.723Z</time>
		<geoidheight>149</geoidheight>
	</trkpt>
	<trkpt lat="50.781428" lon="6.059184">
		<ele>195</ele>
		<time>2011-09-11T15:14:40.724Z</time>
		<geoidheight>149</geoidheight>
	</trkpt>
	<trkpt lat="50.781455" lon="6.059143">
		<ele>194</ele>
		<time>2011-09-11T15:14:41.726Z</time>
		<geoidheight>148</geoidheight>
	</trkpt>
	<trkpt lat="50.781484" lon="6.059103">
		<ele>194</ele>
		<time>2011-09-11T15:14:42.748Z</time>
		<geoidheight>148</geoidheight>
	</trkpt>
	<trkpt lat="50.781510" lon="6.059068">
		<ele>194</ele>
		<time>2011-09-11T15:14:43.750Z</time>
		<geoidheight>148</geoidheight>
	</trkpt>
	<trkpt lat="50.781524" lon="6.059038">
		<ele>194</ele>
		<time>2011-09-11T15:14:44.759Z</time>
		<geoidheight>148</geoidheight>
	</trkpt>
	<trkpt lat="50.781537" lon="6.059010">
		<ele>194</ele>
		<time>2011-09-11T15:14:45.753Z</time>
		<geoidheight>148</geoidheight>
	</trkpt>
	<trkpt lat="50.781536" lon="6.058979">
		<ele>194</ele>
		<time>2011-09-11T15:14:46.743Z</time>
		<geoidheight>148</geoidheight>
	</trkpt>
	<trkpt lat="50.781536" lon="6.058947">
		<ele>194</ele>
		<time>2011-09-11T15:14:47.750Z</time>
		<geoidheight>148</geoidheight>
	</trkpt>
	<trkpt lat="50.781536" lon="6.058947">
		<ele>194</ele>
		<time>2011-09-11T15:14:48.749Z</time>
		<geoidheight>148</geoidheight>
	</trkpt>
	<trkpt lat="50.781536" lon="6.058947">
		<ele>194</ele>
		<time>2011-09-11T15:14:49.746Z</time>
		<geoidheight>148</geoidheight>
	</trkpt>
	<trkpt lat="50.781492" lon="6.058900">
		<ele>194</ele>
		<time>2011-09-11T15:14:50.740Z</time>
		<geoidheight>148</geoidheight>
	</trkpt>
	<trkpt lat="50.781492" lon="6.058900">
		<ele>194</ele>
		<time>2011-09-11T15:14:51.723Z</time>
		<geoidheight>148</geoidheight>
	</trkpt>
	<trkpt lat="50.781492" lon="6.058900">
		<ele>194</ele>
		<time>2011-09-11T15:16:36.733Z</time>
		<geoidheight>148</geoidheight>
	</trkpt>
	<trkpt lat="50.781438" lon="6.058873">
		<ele>194</ele>
		<time>2011-09-11T15:16:37.734Z</time>
		<geoidheight>148</geoidheight>
	</trkpt>
	<trkpt lat="50.781438" lon="6.058873">
		<ele>194</ele>
		<time>2011-09-11T15:17:45.723Z</time>
		<geoidheight>148</geoidheight>
	</trkpt>
	<trkpt lat="50.781453" lon="6.058801">
		<ele>194</ele>
		<time>2011-09-11T15:17:46.722Z</time>
		<geoidheight>148</geoidheight>
	</trkpt>
	<trkpt lat="50.781453" lon="6.058801">
		<ele>194</ele>
		<time>2011-09-11T15:17:49.722Z</time>
		<geoidheight>148</geoidheight>
	</trkpt>
</trkseg>
</trk>
</gpx>